Time,TemperatureF,DewpointF,PressureIn,WindDirection,WindDirectionDegrees,WindSpeedMPH,WindSpeedGustMPH,Humidity,HourlyPrecipIn,Conditions,Clouds,dailyrainin,SoftwareType,DateUTC
2013-04-17 00:00:00,57.6,49.3,30.05,WNW,292,4.7,6.0,74,0.00,,,0.00,WUHU21623XXSP,2013-04-17 04:00:00,
2013-04-17 00:02:00,57.6,49.3,30.05,WSW,247,8.3,8.3,74,0.00,,,0.00,WUHU21623XXSP,2013-04-17 04:02:00,
2013-04-17 00:05:00,57.4,49.3,30.05,WSW,247,0.0,8.3,74,0.00,,,0.00,WUHU21623XXSP,2013-04-17 04:05:00,
2013-04-17 00:07:00,57.6,49.3,30.05,SSW,202,3.6,8.3,74,0.00,,,0.00,WUHU21623XXSP,2013-04-17 04:07:00,
2013-04-17 00:10:00,57.6,49.3,30.06,West,270,21.0,21.0,74,0.00,,,0.00,WUHU21623XXSP,2013-04-17 04:10:00,
2013-04-17 00:12:00,57.6,49.3,30.05,West,270,1.8,21.0,74,0.00,,,0.00,WUHU21623XXSP,2013-04-17 04:12:00,
2013-04-17 00:15:00,57.6,49.3,30.05,NNW,337,2.2,21.0,74,0.00,,,0.00,WUHU21623XXSP,2013-04-17 04:15:00,
2013-04-17 00:16:00,57.6,49.3,30.05,NNW,337,2.2,21.0,74,0.00,,,0.00,WUHU21623XXSP,2013-04-17 04:16:00,
2013-04-17 00:17:00,57.6,49.3,30.05,ESE,112,6.5,21.0,74,0.00,,,0.00,WUHU21623XXSP,2013-04-17 04:17:00,
2013-04-17 00:20:00,57.6,49.3,30.05,NNW,337,1.6,6.5,74,0.00,,,0.00,WUHU21623XXSP,2013-04-17 04:20:00,
2013-04-17 00:21:00,57.6,49.3,30.05,WNW,292,2.9,6.5,74,0.00,,,0.00,WUHU21623XXSP,2013-04-17 04:21:00,
2013-04-17 00:22:00,57.6,49.3,30.05,WNW,292,2.9,6.5,74,0.00,,,0.00,WUHU21623XXSP,2013-04-17 04:22:00,
2013-04-17 00:23:00,57.7,49.5,30.05,NNW,337,2.5,6.5,74,0.00,,,0.00,WUHU21623XXSP,2013-04-17 04:23:00,
2013-04-17 00:25:00,57.7,49.5,30.06,West,270,4.0,6.5,74,0.00,,,0.00,WUHU21623XXSP,2013-04-17 04:25:00,
2013-04-17 00:26:00,57.7,49.5,30.06,West,270,4.0,6.5,74,0.00,,,0.00,WUHU21623XXSP,2013-04-17 04:26:00,
2013-04-17 00:27:00,57.7,49.5,30.06,West,270,4.0,4.0,74,0.00,,,0.00,WUHU21623XXSP,2013-04-17 04:27:00,
2013-04-17 00:28:00,57.7,49.5,30.05,West,270,2.7,4.0,74,0.00,,,0.00,WUHU21623XXSP,2013-04-17 04:28:00,
2013-04-17 00:30:00,57.7,49.5,30.06,West,270,0.0,4.0,74,0.00,,,0.00,WUHU21623XXSP,2013-04-17 04:30:00,
2013-04-17 00:33:00,57.7,49.5,30.06,SSE,157,7.2,7.2,74,0.00,,,0.00,WUHU21623XXSP,2013-04-17 04:33:00,
2013-04-17 00:35:00,57.9,49.6,30.06,NNW,337,0.9,7.2,74,0.00,,,0.00,WUHU21623XXSP,2013-04-17 04:35:00,
2013-04-17 00:38:00,57.9,49.6,30.06,South,180,4.3,7.2,74,0.00,,,0.00,WUHU21623XXSP,2013-04-17 04:38:00,
2013-04-17 00:39:00,57.9,49.6,30.06,South,180,4.3,7.2,74,0.00,,,0.00,WUHU21623XXSP,2013-04-17 04:39:00,
2013-04-17 00:40:00,57.9,49.6,30.06,West,270,2.5,7.2,74,0.00,,,0.00,WUHU21623XXSP,2013-04-17 04:40:00,
2013-04-17 00:41:00,57.9,49.6,30.06,West,270,2.5,7.2,74,0.00,,,0.00,WUHU21623XXSP,2013-04-17 04:41:00,
2013-04-17 00:43:00,58.1,49.8,30.06,WNW,292,6.9,6.9,74,0.00,,,0.00,WUHU21623XXSP,2013-04-17 04:43:00,
2013-04-17 00:44:00,58.1,49.8,30.06,WNW,292,6.9,6.9,74,0.00,,,0.00,WUHU21623XXSP,2013-04-17 04:44:00,
2013-04-17 00:46:00,58.1,49.8,30.06,NW,315,0.0,6.9,74,0.00,,,0.00,WUHU21623XXSP,2013-04-17 04:46:00,
2013-04-17 00:48:00,58.1,49.8,30.06,WNW,292,3.8,6.9,74,0.00,,,0.00,WUHU21623XXSP,2013-04-17 04:48:00,
2013-04-17 00:49:00,58.1,49.8,30.06,WNW,292,3.8,6.9,74,0.00,,,0.00,WUHU21623XXSP,2013-04-17 04:49:00,
2013-04-17 00:51:00,58.3,50.0,30.05,West,270,4.7,6.9,74,0.00,,,0.00,WUHU21623XXSP,2013-04-17 04:51:00,
2013-04-17 00:54:00,58.3,50.0,30.06,West,270,1.6,4.7,74,0.00,,,0.00,WUHU21623XXSP,2013-04-17 04:54:00,
2013-04-17 00:57:00,58.3,50.0,30.05,SW,225,0.0,4.7,74,0.00,,,0.00,WUHU21623XXSP,2013-04-17 04:57:00,
2013-04-17 00:59:00,58.3,50.0,30.05,SW,225,0.0,4.7,74,0.00,,,0.00,WUHU21623XXSP,2013-04-17 04:59:00,
2013-04-17 01:02:00,58.5,50.5,30.06,WNW,292,2.2,2.2,75,0.00,,,0.00,WUHU21623XXSP,2013-04-17 05:02:00,
2013-04-17 01:04:00,58.5,50.5,30.06,WNW,292,2.2,2.2,75,0.00,,,0.00,WUHU21623XXSP,2013-04-17 05:04:00,
2013-04-17 01:08:00,58.6,50.4,30.06,NNE,22,0.0,3.8,74,0.00,,,0.00,WUHU21623XXSP,2013-04-17 05:08:00,
2013-04-17 01:09:00,58.6,50.4,30.06,NNE,22,0.0,3.8,74,0.00,,,0.00,WUHU21623XXSP,2013-04-17 05:09:00,
2013-04-17 01:13:00,58.6,50.4,30.07,WNW,292,0.0,3.8,74,0.00,,,0.00,WUHU21623XXSP,2013-04-17 05:13:00,
2013-04-17 01:14:00,58.6,50.4,30.07,WNW,292,0.0,3.8,74,0.00,,,0.00,WUHU21623XXSP,2013-04-17 05:14:00,
2013-04-17 01:18:00,58.8,50.5,30.07,NW,315,0.0,2.5,74,0.00,,,0.00,WUHU21623XXSP,2013-04-17 05:18:00,
2013-04-17 01:19:00,58.8,50.5,30.07,WNW,292,6.0,6.0,74,0.00,,,0.00,WUHU21623XXSP,2013-04-17 05:19:00,
2013-04-17 01:20:00,58.8,50.5,30.07,WNW,292,6.0,6.0,74,0.00,,,0.00,WUHU21623XXSP,2013-04-17 05:20:00,
2013-04-17 01:23:00,58.8,50.5,30.07,West,270,0.0,6.0,74,0.00,,,0.00,WUHU21623XXSP,2013-04-17 05:23:00,
2013-04-17 01:24:00,58.8,50.5,30.07,West,270,0.0,6.0,74,0.00,,,0.00,WUHU21623XXSP,2013-04-17 05:24:00,
2013-04-17 01:25:00,58.8,50.5,30.07,West,270,0.0,6.0,74,0.00,,,0.00,WUHU21623XXSP,2013-04-17 05:25:00,
2013-04-17 01:28:00,58.8,50.5,30.06,West,270,1.6,4.7,74,0.00,,,0.00,WUHU21623XXSP,2013-04-17 05:28:00,
2013-04-17 01:29:00,58.8,50.5,30.06,West,270,1.6,4.7,74,0.00,,,0.00,WUHU21623XXSP,2013-04-17 05:29:00,
2013-04-17 01:30:00,58.8,50.5,30.06,WSW,247,2.9,4.7,74,0.00,,,0.00,WUHU21623XXSP,2013-04-17 05:30:00,
2013-04-17 01:34:00,58.8,50.5,30.06,WSW,247,3.6,3.6,74,0.00,,,0.00,WUHU21623XXSP,2013-04-17 05:34:00,
2013-04-17 01:35:00,58.8,50.5,30.06,WSW,247,3.6,3.6,74,0.00,,,0.00,WUHU21623XXSP,2013-04-17 05:35:00,
2013-04-17 01:36:00,58.8,50.5,30.06,West,270,3.6,3.6,74,0.00,,,0.00,WUHU21623XXSP,2013-04-17 05:36:00,
2013-04-17 01:39:00,58.8,50.5,30.07,West,270,0.0,3.6,74,0.00,,,0.00,WUHU21623XXSP,2013-04-17 05:39:00,
2013-04-17 01:40:00,58.6,50.7,30.07,WSW,247,8.1,8.1,75,0.00,,,0.00,WUHU21623XXSP,2013-04-17 05:40:00,
2013-04-17 01:41:00,58.6,50.7,30.07,WSW,247,8.1,8.1,75,0.00,,,0.00,WUHU21623XXSP,2013-04-17 05:41:00,
2013-04-17 01:44:00,58.6,50.7,30.06,WSW,247,8.1,8.1,74,0.00,,,0.00,WUHU21623XXSP,2013-04-17 05:44:00,
2013-04-17 01:45:00,58.6,50.7,30.06,West,270,5.1,8.1,75,0.00,,,0.00,WUHU21623XXSP,2013-04-17 05:45:00,
2013-04-17 01:46:00,58.6,50.7,30.06,WNW,292,7.8,8.1,75,0.00,,,0.00,WUHU21623XXSP,2013-04-17 05:46:00,
2013-04-17 01:49:00,58.6,50.7,30.06,WSW,247,2.9,8.1,75,0.00,,,0.00,WUHU21623XXSP,2013-04-17 05:49:00,
2013-04-17 01:50:00,58.6,50.7,30.06,WSW,247,2.9,8.1,75,0.00,,,0.00,WUHU21623XXSP,2013-04-17 05:50:00,
2013-04-17 01:51:00,58.6,50.7,30.06,West,270,3.6,8.1,75,0.00,,,0.00,WUHU21623XXSP,2013-04-17 05:51:00,
2013-04-17 01:54:00,58.6,50.7,30.06,NNW,337,0.0,7.8,75,0.00,,,0.00,WUHU21623XXSP,2013-04-17 05:54:00,
2013-04-17 01:55:00,58.6,50.7,30.06,NNW,337,0.0,7.8,75,0.00,,,0.00,WUHU21623XXSP,2013-04-17 05:55:00,
2013-04-17 01:56:00,58.5,50.5,30.06,West,270,0.0,7.8,75,0.00,,,0.00,WUHU21623XXSP,2013-04-17 05:56:00,
2013-04-17 01:57:00,58.5,50.5,30.06,West,270,0.0,3.6,75,0.00,,,0.00,WUHU21623XXSP,2013-04-17 05:57:00,
2013-04-17 01:59:00,58.3,50.4,30.06,WSW,247,1.1,5.1,75,0.00,,,0.00,WUHU21623XXSP,2013-04-17 05:59:00,
2013-04-17 02:00:00,58.3,50.4,30.06,WSW,247,1.1,5.1,75,0.00,,,0.00,WUHU21623XXSP,2013-04-17 06:00:00,
2013-04-17 02:01:00,58.3,50.4,30.06,WSW,247,1.1,5.1,75,0.00,,,0.00,WUHU21623XXSP,2013-04-17 06:01:00,
2013-04-17 02:02:00,58.3,50.4,30.06,West,270,8.5,8.5,75,0.00,,,0.00,WUHU21623XXSP,2013-04-17 06:02:00,
2013-04-17 02:05:00,58.3,50.4,30.06,WNW,292,2.5,8.5,75,0.00,,,0.00,WUHU21623XXSP,2013-04-17 06:05:00,
2013-04-17 02:06:00,58.3,50.4,30.06,West,270,0.9,8.5,75,0.00,,,0.00,WUHU21623XXSP,2013-04-17 06:06:00,
2013-04-17 02:07:00,58.3,50.4,30.06,West,270,0.9,8.5,75,0.00,,,0.00,WUHU21623XXSP,2013-04-17 06:07:00,
2013-04-17 02:10:00,58.3,50.4,30.06,WNW,292,5.4,8.5,75,0.00,,,0.00,WUHU21623XXSP,2013-04-17 06:10:00,
2013-04-17 02:11:00,58.3,50.4,30.06,WNW,292,5.4,8.5,75,0.00,,,0.00,WUHU21623XXSP,2013-04-17 06:11:00,
2013-04-17 02:12:00,58.3,50.4,30.06,WSW,247,5.6,5.6,75,0.00,,,0.00,WUHU21623XXSP,2013-04-17 06:12:00,
2013-04-17 02:17:00,58.3,50.4,30.06,West,270,8.9,8.9,75,0.00,,,0.00,WUHU21623XXSP,2013-04-17 06:17:00,
2013-04-17 02:22:00,58.3,50.4,30.06,West,270,5.1,8.9,75,0.00,,,0.00,WUHU21623XXSP,2013-04-17 06:22:00,
2013-04-17 02:23:00,58.3,50.4,30.07,WSW,247,3.8,8.9,75,0.00,,,0.00,WUHU21623XXSP,2013-04-17 06:23:00,
2013-04-17 02:27:00,58.3,50.4,30.06,North,0,0.0,5.6,75,0.00,,,0.00,WUHU21623XXSP,2013-04-17 06:27:00,
2013-04-17 02:28:00,58.3,50.4,30.06,North,0,0.0,5.1,75,0.00,,,0.00,WUHU21623XXSP,2013-04-17 06:28:00,
2013-04-17 02:32:00,58.3,50.4,30.06,West,270,2.2,5.1,75,0.00,,,0.00,WUHU21623XXSP,2013-04-17 06:32:00,
2013-04-17 02:34:00,58.3,50.4,30.06,West,270,1.1,5.1,75,0.00,,,0.00,WUHU21623XXSP,2013-04-17 06:34:00,
2013-04-17 02:37:00,58.3,50.7,30.06,West,270,2.9,3.4,76,0.00,,,0.00,WUHU21623XXSP,2013-04-17 06:37:00,
2013-04-17 02:38:00,58.3,50.7,30.07,West,270,1.6,3.4,76,0.00,,,0.00,WUHU21623XXSP,2013-04-17 06:38:00,
2013-04-17 02:39:00,58.3,50.7,30.07,West,270,1.6,3.4,76,0.00,,,0.00,WUHU21623XXSP,2013-04-17 06:39:00,
2013-04-17 02:42:00,58.1,50.5,30.07,West,270,6.7,6.7,76,0.00,,,0.00,WUHU21623XXSP,2013-04-17 06:42:00,
2013-04-17 02:43:00,58.1,50.5,30.07,West,270,6.7,6.7,76,0.00,,,0.00,WUHU21623XXSP,2013-04-17 06:43:00,
2013-04-17 02:44:00,58.1,50.5,30.07,North,0,0.9,6.7,76,0.00,,,0.00,WUHU21623XXSP,2013-04-17 06:44:00,
2013-04-17 02:48:00,58.1,50.5,30.07,West,270,3.4,6.7,76,0.00,,,0.00,WUHU21623XXSP,2013-04-17 06:48:00,
2013-04-17 02:50:00,58.1,50.5,30.07,West,270,3.1,6.7,76,0.00,,,0.00,WUHU21623XXSP,2013-04-17 06:50:00,
2013-04-17 02:53:00,58.1,50.5,30.08,WNW,292,0.0,3.4,76,0.00,,,0.00,WUHU21623XXSP,2013-04-17 06:53:00,
2013-04-17 02:55:00,58.1,50.5,30.08,West,270,0.0,3.4,76,0.00,,,0.00,WUHU21623XXSP,2013-04-17 06:55:00,
2013-04-17 02:58:00,58.1,50.9,30.08,West,270,2.2,3.1,77,0.00,,,0.00,WUHU21623XXSP,2013-04-17 06:58:00,
2013-04-17 03:00:00,58.1,50.9,30.07,West,270,0.0,2.2,77,0.00,,,0.00,WUHU21623XXSP,2013-04-17 07:00:00,
2013-04-17 03:03:00,58.1,50.9,30.07,WSW,247,5.1,5.1,77,0.00,,,0.00,WUHU21623XXSP,2013-04-17 07:03:00,
2013-04-17 03:06:00,58.1,50.9,30.08,WNW,292,0.0,5.1,77,0.00,,,0.00,WUHU21623XXSP,2013-04-17 07:06:00,
2013-04-17 03:08:00,58.1,50.9,30.08,NW,315,1.1,5.1,77,0.00,,,0.00,WUHU21623XXSP,2013-04-17 07:08:00,
2013-04-17 03:09:00,58.1,50.9,30.08,NW,315,1.1,5.1,77,0.00,,,0.00,WUHU21623XXSP,2013-04-17 07:09:00,
2013-04-17 03:11:00,58.1,50.9,30.08,SE,135,0.0,1.3,77,0.00,,,0.00,WUHU21623XXSP,2013-04-17 07:11:00,
2013-04-17 03:14:00,58.1,50.9,30.08,West,270,2.5,2.5,77,0.00,,,0.00,WUHU21623XXSP,2013-04-17 07:14:00,
2013-04-17 03:17:00,57.9,50.7,30.08,WNW,292,0.0,2.5,77,0.00,,,0.00,WUHU21623XXSP,2013-04-17 07:17:00,
2013-04-17 03:19:00,57.9,50.7,30.08,West,270,0.7,2.5,77,0.00,,,0.00,WUHU21623XXSP,2013-04-17 07:19:00,
2013-04-17 03:20:00,57.9,50.7,30.08,West,270,0.7,2.5,77,0.00,,,0.00,WUHU21623XXSP,2013-04-17 07:20:00,
2013-04-17 03:23:00,57.9,51.1,30.08,WSW,247,0.0,2.9,78,0.00,,,0.00,WUHU21623XXSP,2013-04-17 07:23:00,
2013-04-17 03:24:00,57.9,51.1,30.08,WSW,247,0.0,2.9,78,0.00,,,0.00,WUHU21623XXSP,2013-04-17 07:24:00,
2013-04-17 03:25:00,57.9,51.1,30.08,West,270,1.3,2.9,78,0.00,,,0.00,WUHU21623XXSP,2013-04-17 07:25:00,
2013-04-17 03:28:00,57.9,51.1,30.08,West,270,2.7,2.9,78,0.00,,,0.00,WUHU21623XXSP,2013-04-17 07:28:00,
2013-04-17 03:29:00,57.9,51.1,30.07,West,270,1.6,2.9,78,0.00,,,0.00,WUHU21623XXSP,2013-04-17 07:29:00,
2013-04-17 03:30:00,57.9,51.1,30.07,West,270,1.6,2.7,78,0.00,,,0.00,WUHU21623XXSP,2013-04-17 07:30:00,
2013-04-17 03:33:00,57.9,51.1,30.07,West,270,2.2,2.7,78,0.00,,,0.00,WUHU21623XXSP,2013-04-17 07:33:00,
2013-04-17 03:34:00,57.9,51.1,30.07,West,270,2.2,2.7,78,0.00,,,0.00,WUHU21623XXSP,2013-04-17 07:34:00,
2013-04-17 03:35:00,57.9,51.1,30.07,West,270,1.6,2.7,78,0.00,,,0.00,WUHU21623XXSP,2013-04-17 07:35:00,
2013-04-17 03:39:00,57.9,51.1,30.07,West,270,2.2,2.2,78,0.00,,,0.00,WUHU21623XXSP,2013-04-17 07:39:00,
2013-04-17 03:41:00,57.9,51.1,30.07,West,270,2.2,2.2,78,0.00,,,0.00,WUHU21623XXSP,2013-04-17 07:41:00,
2013-04-17 03:44:00,57.9,51.1,30.07,West,270,4.0,4.0,78,0.00,,,0.00,WUHU21623XXSP,2013-04-17 07:44:00,
2013-04-17 03:46:00,57.9,51.1,30.07,West,270,4.0,4.0,78,0.00,,,0.00,WUHU21623XXSP,2013-04-17 07:46:00,
2013-04-17 03:49:00,57.9,51.1,30.07,SW,225,1.3,4.0,78,0.00,,,0.00,WUHU21623XXSP,2013-04-17 07:49:00,
2013-04-17 03:50:00,57.9,51.1,30.07,SW,225,1.3,4.0,78,0.00,,,0.00,WUHU21623XXSP,2013-04-17 07:50:00,
2013-04-17 03:51:00,57.9,50.7,30.07,WSW,247,3.6,4.0,77,0.00,,,0.00,WUHU21623XXSP,2013-04-17 07:51:00,
2013-04-17 03:54:00,57.9,50.7,30.07,West,270,5.4,5.4,77,0.00,,,0.00,WUHU21623XXSP,2013-04-17 07:54:00,
2013-04-17 03:55:00,57.9,50.7,30.06,West,270,5.4,5.4,77,0.00,,,0.00,WUHU21623XXSP,2013-04-17 07:55:00,
2013-04-17 03:57:00,57.9,50.7,30.07,West,270,5.4,5.4,77,0.00,,,0.00,WUHU21623XXSP,2013-04-17 07:57:00,
2013-04-17 03:59:00,57.9,50.7,30.07,WSW,247,0.7,5.4,77,0.00,,,0.00,WUHU21623XXSP,2013-04-17 07:59:00,
2013-04-17 04:00:00,57.9,50.7,30.07,WSW,247,0.7,5.4,77,0.00,,,0.00,WUHU21623XXSP,2013-04-17 08:00:00,
2013-04-17 04:02:00,57.9,50.7,30.07,West,270,2.9,5.4,77,0.00,,,0.00,WUHU21623XXSP,2013-04-17 08:02:00,
2013-04-17 04:04:00,57.9,50.7,30.07,West,270,0.0,5.4,77,0.00,,,0.00,WUHU21623XXSP,2013-04-17 08:04:00,
2013-04-17 04:05:00,57.9,50.7,30.07,West,270,0.0,5.4,77,0.00,,,0.00,WUHU21623XXSP,2013-04-17 08:05:00,
2013-04-17 04:08:00,57.9,50.4,30.07,West,270,0.0,4.7,76,0.00,,,0.00,WUHU21623XXSP,2013-04-17 08:08:00,
2013-04-17 04:10:00,57.9,50.4,30.07,West,270,2.0,4.7,76,0.00,,,0.00,WUHU21623XXSP,2013-04-17 08:10:00,
2013-04-17 04:13:00,57.9,50.4,30.07,NW,315,0.9,4.7,76,0.00,,,0.00,WUHU21623XXSP,2013-04-17 08:13:00,
2013-04-17 04:15:00,57.9,50.4,30.07,WNW,292,6.0,6.0,76,0.00,,,0.00,WUHU21623XXSP,2013-04-17 08:15:00,
2013-04-17 04:17:00,57.9,50.0,30.07,West,270,0.0,6.0,75,0.00,,,0.00,WUHU21623XXSP,2013-04-17 08:17:00,
2013-04-17 04:18:00,57.9,50.0,30.07,West,270,0.0,6.0,75,0.00,,,0.00,WUHU21623XXSP,2013-04-17 08:18:00,
2013-04-17 04:20:00,57.9,50.0,30.08,West,270,3.4,6.0,75,0.00,,,0.00,WUHU21623XXSP,2013-04-17 08:20:00,
2013-04-17 04:22:00,57.9,50.0,30.07,West,270,2.5,6.0,75,0.00,,,0.00,WUHU21623XXSP,2013-04-17 08:22:00,
2013-04-17 04:23:00,57.9,49.6,30.08,West,270,2.9,6.0,74,0.00,,,0.00,WUHU21623XXSP,2013-04-17 08:23:00,
2013-04-17 04:25:00,57.7,49.5,30.08,NW,315,0.0,3.4,74,0.00,,,0.00,WUHU21623XXSP,2013-04-17 08:25:00,
2013-04-17 04:26:00,57.7,49.5,30.08,NW,315,0.0,3.4,74,0.00,,,0.00,WUHU21623XXSP,2013-04-17 08:26:00,
2013-04-17 04:27:00,57.7,49.1,30.08,WNW,292,6.7,6.7,73,0.00,,,0.00,WUHU21623XXSP,2013-04-17 08:27:00,
2013-04-17 04:29:00,57.7,49.1,30.08,WNW,292,6.7,6.7,73,0.00,,,0.00,WUHU21623XXSP,2013-04-17 08:29:00,
2013-04-17 04:30:00,57.7,48.7,30.08,SW,225,3.8,6.7,72,0.00,,,0.00,WUHU21623XXSP,2013-04-17 08:30:00,
2013-04-17 04:31:00,57.7,48.7,30.08,SW,225,3.8,6.7,72,0.00,,,0.00,WUHU21623XXSP,2013-04-17 08:31:00,
2013-04-17 04:32:00,57.7,48.4,30.08,NW,315,0.0,6.7,71,0.00,,,0.00,WUHU21623XXSP,2013-04-17 08:32:00,
2013-04-17 04:33:00,57.7,48.4,30.08,NW,315,0.0,6.7,71,0.00,,,0.00,WUHU21623XXSP,2013-04-17 08:33:00,
2013-04-17 04:34:00,57.7,48.0,30.09,NW,315,3.8,6.7,70,0.00,,,0.00,WUHU21623XXSP,2013-04-17 08:34:00,
2013-04-17 04:36:00,57.6,47.4,30.09,West,270,1.1,6.7,69,0.00,,,0.00,WUHU21623XXSP,2013-04-17 08:36:00,
2013-04-17 04:37:00,57.6,47.4,30.09,West,270,1.1,3.8,69,0.00,,,0.00,WUHU21623XXSP,2013-04-17 08:37:00,
2013-04-17 04:38:00,57.6,47.0,30.09,NNW,337,0.9,3.8,68,0.00,,,0.00,WUHU21623XXSP,2013-04-17 08:38:00,
2013-04-17 04:39:00,57.6,47.0,30.09,NNW,337,0.9,3.8,68,0.00,,,0.00,WUHU21623XXSP,2013-04-17 08:39:00,
2013-04-17 04:41:00,57.4,46.9,30.08,WSW,247,2.7,3.8,68,0.00,,,0.00,WUHU21623XXSP,2013-04-17 08:41:00,
2013-04-17 04:42:00,57.4,46.5,30.09,WSW,247,7.4,7.4,67,0.00,,,0.00,WUHU21623XXSP,2013-04-17 08:42:00,
2013-04-17 04:43:00,57.4,46.5,30.09,WSW,247,7.4,7.4,67,0.00,,,0.00,WUHU21623XXSP,2013-04-17 08:43:00,
2013-04-17 04:44:00,57.4,46.5,30.09,WSW,247,7.4,7.4,67,0.00,,,0.00,WUHU21623XXSP,2013-04-17 08:44:00,
2013-04-17 04:47:00,57.4,46.1,30.09,WNW,292,1.1,7.4,66,0.00,,,0.00,WUHU21623XXSP,2013-04-17 08:47:00,
2013-04-17 04:48:00,57.4,46.1,30.09,WNW,292,1.1,7.4,66,0.00,,,0.00,WUHU21623XXSP,2013-04-17 08:48:00,
2013-04-17 04:49:00,57.2,46.1,30.09,WNW,292,1.1,7.4,66,0.00,,,0.00,WUHU21623XXSP,2013-04-17 08:49:00,
2013-04-17 04:52:00,57.0,45.7,30.09,West,270,8.9,8.9,66,0.00,,,0.00,WUHU21623XXSP,2013-04-17 08:52:00,
2013-04-17 04:53:00,57.0,45.3,30.09,SSW,202,2.5,8.9,65,0.00,,,0.00,WUHU21623XXSP,2013-04-17 08:53:00,
2013-04-17 04:54:00,57.0,45.3,30.09,SSW,202,2.5,8.9,65,0.00,,,0.00,WUHU21623XXSP,2013-04-17 08:54:00,
2013-04-17 04:57:00,57.0,45.3,30.09,NNW,337,3.1,8.9,65,0.00,,,0.00,WUHU21623XXSP,2013-04-17 08:57:00,
2013-04-17 04:58:00,57.0,45.3,30.09,NNW,337,3.1,8.9,65,0.00,,,0.00,WUHU21623XXSP,2013-04-17 08:58:00,
2013-04-17 04:59:00,57.0,45.3,30.09,West,270,4.5,8.9,65,0.00,,,0.00,WUHU21623XXSP,2013-04-17 08:59:00,
2013-04-17 05:03:00,56.8,45.2,30.09,West,270,2.7,4.5,65,0.00,,,0.00,WUHU21623XXSP,2013-04-17 09:03:00,
2013-04-17 05:04:00,56.8,45.6,30.10,WSW,247,6.3,6.3,66,0.00,,,0.00,WUHU21623XXSP,2013-04-17 09:04:00,
2013-04-17 05:05:00,56.8,45.6,30.10,WSW,247,6.3,6.3,66,0.00,,,0.00,WUHU21623XXSP,2013-04-17 09:05:00,
2013-04-17 05:08:00,56.5,45.2,30.09,West,270,3.1,6.3,66,0.00,,,0.00,WUHU21623XXSP,2013-04-17 09:08:00,
2013-04-17 05:09:00,56.5,45.2,30.09,West,270,3.1,6.3,66,0.00,,,0.00,WUHU21623XXSP,2013-04-17 09:09:00,
2013-04-17 05:10:00,56.5,45.2,30.09,WNW,292,2.7,6.3,66,0.00,,,0.00,WUHU21623XXSP,2013-04-17 09:10:00,
2013-04-17 05:13:00,56.3,45.0,30.09,NW,315,2.0,6.3,66,0.00,,,0.00,WUHU21623XXSP,2013-04-17 09:13:00,
2013-04-17 05:14:00,56.3,45.0,30.09,West,270,0.0,3.1,66,0.00,,,0.00,WUHU21623XXSP,2013-04-17 09:14:00,
2013-04-17 05:15:00,56.3,45.0,30.09,West,270,0.0,3.1,66,0.00,,,0.00,WUHU21623XXSP,2013-04-17 09:15:00,
2013-04-17 05:18:00,56.1,44.9,30.09,NNW,337,2.2,2.7,66,0.00,,,0.00,WUHU21623XXSP,2013-04-17 09:18:00,
2013-04-17 05:19:00,56.1,44.9,30.09,NW,315,2.5,2.7,66,0.00,,,0.00,WUHU21623XXSP,2013-04-17 09:19:00,
2013-04-17 05:20:00,56.1,44.9,30.09,NW,315,2.5,2.5,66,0.00,,,0.00,WUHU21623XXSP,2013-04-17 09:20:00,
2013-04-17 05:23:00,55.9,44.3,30.09,West,270,4.5,4.5,65,0.00,,,0.00,WUHU21623XXSP,2013-04-17 09:23:00,
2013-04-17 05:24:00,55.9,44.3,30.09,West,270,4.5,4.5,65,0.00,,,0.00,WUHU21623XXSP,2013-04-17 09:24:00,
2013-04-17 05:25:00,55.9,44.3,30.09,NW,315,0.0,4.5,65,0.00,,,0.00,WUHU21623XXSP,2013-04-17 09:25:00,
2013-04-17 05:28:00,55.9,44.7,30.09,West,270,4.3,4.5,66,0.00,,,0.00,WUHU21623XXSP,2013-04-17 09:28:00,
2013-04-17 05:29:00,55.9,44.7,30.09,WNW,292,0.0,4.5,66,0.00,,,0.00,WUHU21623XXSP,2013-04-17 09:29:00,
2013-04-17 05:30:00,55.9,44.7,30.09,WNW,292,0.0,4.5,66,0.00,,,0.00,WUHU21623XXSP,2013-04-17 09:30:00,
2013-04-17 05:31:00,55.9,44.7,30.09,WNW,292,0.0,4.5,66,0.00,,,0.00,WUHU21623XXSP,2013-04-17 09:31:00,
2013-04-17 05:33:00,55.8,44.5,30.09,West,270,2.7,4.3,66,0.00,,,0.00,WUHU21623XXSP,2013-04-17 09:33:00,
2013-04-17 05:34:00,55.8,44.5,30.09,West,270,2.7,4.3,66,0.00,,,0.00,WUHU21623XXSP,2013-04-17 09:34:00,
2013-04-17 05:35:00,55.8,44.5,30.09,West,270,2.7,4.3,66,0.00,,,0.00,WUHU21623XXSP,2013-04-17 09:35:00,
2013-04-17 05:37:00,55.8,44.5,30.09,West,270,1.3,2.9,66,0.00,,,0.00,WUHU21623XXSP,2013-04-17 09:37:00,
2013-04-17 05:38:00,55.8,44.5,30.09,West,270,4.9,4.9,66,0.00,,,0.00,WUHU21623XXSP,2013-04-17 09:38:00,
2013-04-17 05:40:00,55.6,44.4,30.10,West,270,1.6,4.9,66,0.00,,,0.00,WUHU21623XXSP,2013-04-17 09:40:00,
2013-04-17 05:41:00,55.6,44.4,30.10,West,270,1.6,4.9,66,0.00,,,0.00,WUHU21623XXSP,2013-04-17 09:41:00,
2013-04-17 05:42:00,55.6,44.4,30.10,WNW,292,3.8,4.9,66,0.00,,,0.00,WUHU21623XXSP,2013-04-17 09:42:00,
2013-04-17 05:43:00,55.6,44.4,30.10,WNW,292,3.8,4.9,66,0.00,,,0.00,WUHU21623XXSP,2013-04-17 09:43:00,
2013-04-17 05:45:00,55.6,44.4,30.10,WSW,247,5.1,5.1,66,0.00,,,0.00,WUHU21623XXSP,2013-04-17 09:45:00,
2013-04-17 05:46:00,55.6,44.4,30.10,WSW,247,5.1,5.1,66,0.00,,,0.00,WUHU21623XXSP,2013-04-17 09:46:00,
2013-04-17 05:47:00,55.6,44.4,30.10,WNW,292,0.0,5.1,66,0.00,,,0.00,WUHU21623XXSP,2013-04-17 09:47:00,
2013-04-17 05:48:00,55.6,44.4,30.10,NW,315,0.9,5.1,66,0.00,,,0.00,WUHU21623XXSP,2013-04-17 09:48:00,
2013-04-17 05:50:00,55.6,44.4,30.10,NW,315,0.9,5.1,66,0.00,,,0.00,WUHU21623XXSP,2013-04-17 09:50:00,
2013-04-17 05:51:00,55.6,44.4,30.10,West,270,0.0,5.1,66,0.00,,,0.00,WUHU21623XXSP,2013-04-17 09:51:00,
2013-04-17 05:52:00,55.4,44.2,30.10,West,270,0.0,5.1,66,0.00,,,0.00,WUHU21623XXSP,2013-04-17 09:52:00,
2013-04-17 05:54:00,55.4,44.2,30.10,West,270,0.0,0.9,66,0.00,,,0.00,WUHU21623XXSP,2013-04-17 09:54:00,
2013-04-17 05:56:00,55.2,44.0,30.10,West,270,5.4,5.4,66,0.00,,,0.00,WUHU21623XXSP,2013-04-17 09:56:00,
2013-04-17 05:57:00,55.2,44.0,30.10,West,270,0.0,5.4,66,0.00,,,0.00,WUHU21623XXSP,2013-04-17 09:57:00,
2013-04-17 05:59:00,55.2,44.0,30.10,West,270,5.8,5.8,66,0.00,,,0.00,WUHU21623XXSP,2013-04-17 09:59:00,
2013-04-17 06:01:00,55.2,44.0,30.10,West,270,5.8,5.8,66,0.00,,,0.00,WUHU21623XXSP,2013-04-17 10:01:00,
2013-04-17 06:02:00,55.2,44.4,30.10,NNW,337,2.2,5.8,67,0.00,,,0.00,WUHU21623XXSP,2013-04-17 10:02:00,
2013-04-17 06:03:00,55.2,44.4,30.10,North,0,4.7,5.8,67,0.00,,,0.00,WUHU21623XXSP,2013-04-17 10:03:00,
2013-04-17 06:04:00,55.2,44.4,30.10,North,0,4.7,5.8,67,0.00,,,0.00,WUHU21623XXSP,2013-04-17 10:04:00,
2013-04-17 06:06:00,55.2,44.4,30.10,WSW,247,2.2,5.8,67,0.00,,,0.00,WUHU21623XXSP,2013-04-17 10:06:00,
2013-04-17 06:07:00,55.2,44.4,30.10,WSW,247,2.2,5.8,67,0.00,,,0.00,WUHU21623XXSP,2013-04-17 10:07:00,
2013-04-17 06:08:00,55.0,44.3,30.11,West,270,1.1,5.8,67,0.00,,,0.00,WUHU21623XXSP,2013-04-17 10:08:00,
2013-04-17 06:09:00,55.0,44.3,30.11,West,270,1.1,4.7,67,0.00,,,0.00,WUHU21623XXSP,2013-04-17 10:09:00,
2013-04-17 06:11:00,55.0,44.3,30.11,West,270,1.6,4.7,67,0.00,,,0.00,WUHU21623XXSP,2013-04-17 10:11:00,
2013-04-17 06:12:00,55.0,44.3,30.11,West,270,1.6,4.7,67,0.00,,,0.00,WUHU21623XXSP,2013-04-17 10:12:00,
2013-04-17 06:14:00,54.9,44.1,30.11,West,270,1.3,2.2,67,0.00,,,0.00,WUHU21623XXSP,2013-04-17 10:14:00,
2013-04-17 06:16:00,54.7,43.9,30.11,West,270,0.0,1.6,67,0.00,,,0.00,WUHU21623XXSP,2013-04-17 10:16:00,
2013-04-17 06:17:00,54.7,43.9,30.11,West,270,0.0,1.6,67,0.00,,,0.00,WUHU21623XXSP,2013-04-17 10:17:00,
2013-04-17 06:19:00,54.7,43.9,30.11,West,270,0.0,1.6,67,0.00,,,0.00,WUHU21623XXSP,2013-04-17 10:19:00,
2013-04-17 06:21:00,54.7,43.9,30.12,WSW,247,0.0,1.6,67,0.00,,,0.00,WUHU21623XXSP,2013-04-17 10:21:00,
2013-04-17 06:22:00,54.7,43.9,30.12,WSW,247,0.0,1.3,67,0.00,,,0.00,WUHU21623XXSP,2013-04-17 10:22:00,
2013-04-17 06:25:00,54.7,43.9,30.11,West,270,0.0,1.1,67,0.00,,,0.00,WUHU21623XXSP,2013-04-17 10:25:00,
2013-04-17 06:27:00,54.5,43.7,30.12,NW,315,1.8,1.8,67,0.00,,,0.00,WUHU21623XXSP,2013-04-17 10:27:00,
2013-04-17 06:30:00,54.5,43.7,30.12,West,270,2.9,2.9,67,0.00,,,0.00,WUHU21623XXSP,2013-04-17 10:30:00,
2013-04-17 06:32:00,54.3,43.6,30.12,West,270,3.1,3.1,67,0.00,,,0.00,WUHU21623XXSP,2013-04-17 10:32:00,
2013-04-17 06:35:00,54.3,43.6,30.12,West,270,2.9,3.1,67,0.00,,,0.00,WUHU21623XXSP,2013-04-17 10:35:00,
2013-04-17 06:37:00,54.3,43.6,30.12,West,270,2.9,3.1,67,0.00,,,0.00,WUHU21623XXSP,2013-04-17 10:37:00,
2013-04-17 06:41:00,54.3,43.2,30.12,SW,225,1.8,3.1,66,0.00,,,0.00,WUHU21623XXSP,2013-04-17 10:41:00,
2013-04-17 06:42:00,54.3,43.2,30.12,NW,315,3.1,3.1,66,0.00,,,0.00,WUHU21623XXSP,2013-04-17 10:42:00,
2013-04-17 06:46:00,54.1,43.0,30.12,West,270,2.0,4.7,66,0.00,,,0.00,WUHU21623XXSP,2013-04-17 10:46:00,
2013-04-17 06:47:00,54.1,43.0,30.12,West,270,2.0,4.7,66,0.00,,,0.00,WUHU21623XXSP,2013-04-17 10:47:00,
2013-04-17 06:48:00,54.3,43.0,30.12,West,270,2.0,4.7,65,0.00,,,0.00,WUHU21623XXSP,2013-04-17 10:48:00,
2013-04-17 06:51:00,54.3,42.8,30.12,West,270,2.9,4.7,65,0.00,,,0.00,WUHU21623XXSP,2013-04-17 10:51:00,
2013-04-17 06:52:00,54.3,42.8,30.12,West,270,2.9,4.7,65,0.00,,,0.00,WUHU21623XXSP,2013-04-17 10:52:00,
2013-04-17 06:53:00,54.1,42.6,30.12,NNW,337,0.0,4.7,65,0.00,,,0.00,WUHU21623XXSP,2013-04-17 10:53:00,
2013-04-17 06:54:00,54.1,42.6,30.12,NNW,337,0.0,2.9,65,0.00,,,0.00,WUHU21623XXSP,2013-04-17 10:54:00,
2013-04-17 06:57:00,54.1,42.6,30.12,NNE,22,0.0,2.9,65,0.00,,,0.00,WUHU21623XXSP,2013-04-17 10:57:00,
2013-04-17 06:58:00,54.1,42.6,30.12,NNE,22,0.0,2.9,65,0.00,,,0.00,WUHU21623XXSP,2013-04-17 10:58:00,
2013-04-17 06:59:00,54.1,42.2,30.12,NNW,337,0.0,2.9,64,0.00,,,0.00,WUHU21623XXSP,2013-04-17 10:59:00,
2013-04-17 07:02:00,54.1,42.2,30.13,NW,315,2.0,2.0,64,0.00,,,0.00,WUHU21623XXSP,2013-04-17 11:02:00,
2013-04-17 07:04:00,54.1,42.6,30.13,WSW,247,4.5,4.5,65,0.00,,,0.00,WUHU21623XXSP,2013-04-17 11:04:00,
2013-04-17 07:07:00,54.1,42.2,30.13,NNW,337,2.5,4.5,64,0.00,,,0.00,WUHU21623XXSP,2013-04-17 11:07:00,
2013-04-17 07:08:00,54.1,42.2,30.13,WSW,247,10.1,10.1,64,0.00,,,0.00,WUHU21623XXSP,2013-04-17 11:08:00,
2013-04-17 07:09:00,54.1,42.2,30.13,WSW,247,10.1,10.1,64,0.00,,,0.00,WUHU21623XXSP,2013-04-17 11:09:00,
2013-04-17 07:12:00,54.1,41.4,30.13,NW,315,2.5,10.1,62,0.00,,,0.00,WUHU21623XXSP,2013-04-17 11:12:00,
2013-04-17 07:14:00,54.1,41.4,30.13,NW,315,6.9,10.1,62,0.00,,,0.00,WUHU21623XXSP,2013-04-17 11:14:00,
2013-04-17 07:15:00,54.1,41.4,30.13,NW,315,6.9,10.1,62,0.00,,,0.00,WUHU21623XXSP,2013-04-17 11:15:00,
2013-04-17 07:17:00,54.1,41.4,30.13,West,270,8.9,8.9,62,0.00,,,0.00,WUHU21623XXSP,2013-04-17 11:17:00,
2013-04-17 07:19:00,54.1,41.4,30.14,NW,315,0.9,8.9,62,0.00,,,0.00,WUHU21623XXSP,2013-04-17 11:19:00,
2013-04-17 07:20:00,54.1,41.4,30.14,NW,315,0.9,8.9,62,0.00,,,0.00,WUHU21623XXSP,2013-04-17 11:20:00,
2013-04-17 07:23:00,54.3,41.1,30.14,West,270,10.1,10.1,61,0.00,,,0.00,WUHU21623XXSP,2013-04-17 11:23:00,
2013-04-17 07:24:00,54.3,41.1,30.14,West,270,10.1,10.1,61,0.00,,,0.00,WUHU21623XXSP,2013-04-17 11:24:00,
2013-04-17 07:25:00,54.1,41.0,30.14,NNW,337,2.5,10.1,61,0.00,,,0.00,WUHU21623XXSP,2013-04-17 11:25:00,
2013-04-17 07:28:00,54.3,41.1,30.14,West,270,2.2,10.1,61,0.00,,,0.00,WUHU21623XXSP,2013-04-17 11:28:00,
2013-04-17 07:29:00,54.3,41.1,30.14,SW,225,2.2,10.1,61,0.00,,,0.00,WUHU21623XXSP,2013-04-17 11:29:00,
2013-04-17 07:30:00,54.3,41.1,30.14,SW,225,2.2,10.1,61,0.00,,,0.00,WUHU21623XXSP,2013-04-17 11:30:00,
2013-04-17 07:33:00,54.3,41.1,30.14,West,270,7.4,8.5,61,0.00,,,0.00,WUHU21623XXSP,2013-04-17 11:33:00,
2013-04-17 07:34:00,54.3,41.1,30.14,West,270,7.4,8.5,61,0.00,,,0.00,WUHU21623XXSP,2013-04-17 11:34:00,
2013-04-17 07:35:00,54.3,41.1,30.14,West,270,7.4,8.5,61,0.00,,,0.00,WUHU21623XXSP,2013-04-17 11:35:00,
2013-04-17 07:39:00,54.3,40.7,30.15,NNW,337,4.5,8.5,60,0.00,,,0.00,WUHU21623XXSP,2013-04-17 11:39:00,
2013-04-17 07:40:00,54.3,40.7,30.15,West,270,1.3,8.5,60,0.00,,,0.00,WUHU21623XXSP,2013-04-17 11:40:00,
2013-04-17 07:41:00,54.3,40.7,30.15,West,270,1.3,8.5,60,0.00,,,0.00,WUHU21623XXSP,2013-04-17 11:41:00,
2013-04-17 07:44:00,54.5,40.9,30.15,NE,45,1.1,4.5,60,0.00,,,0.00,WUHU21623XXSP,2013-04-17 11:44:00,
2013-04-17 07:45:00,54.5,40.9,30.15,NE,45,1.1,4.5,60,0.00,,,0.00,WUHU21623XXSP,2013-04-17 11:45:00,
2013-04-17 07:46:00,54.5,40.9,30.15,NE,45,1.1,4.5,60,0.00,,,0.00,WUHU21623XXSP,2013-04-17 11:46:00,
2013-04-17 07:49:00,54.7,40.9,30.15,WNW,292,2.5,2.5,60,0.00,,,0.00,WUHU21623XXSP,2013-04-17 11:49:00,
2013-04-17 07:50:00,54.7,41.1,30.15,West,270,6.9,6.9,60,0.00,,,0.00,WUHU21623XXSP,2013-04-17 11:50:00,
2013-04-17 07:51:00,54.7,41.1,30.15,West,270,6.9,6.9,60,0.00,,,0.00,WUHU21623XXSP,2013-04-17 11:51:00,
2013-04-17 07:54:00,54.7,41.1,30.15,North,0,4.5,6.9,60,0.00,,,0.00,WUHU21623XXSP,2013-04-17 11:54:00,
2013-04-17 07:55:00,54.7,41.1,30.15,North,0,4.5,6.9,60,0.00,,,0.00,WUHU21623XXSP,2013-04-17 11:55:00,
2013-04-17 07:57:00,54.9,41.1,30.15,North,0,4.5,6.9,60,0.00,,,0.00,WUHU21623XXSP,2013-04-17 11:57:00,
2013-04-17 07:59:00,54.9,41.2,30.15,WNW,292,2.5,6.9,60,0.00,,,0.00,WUHU21623XXSP,2013-04-17 11:59:00,
2013-04-17 08:00:00,54.9,41.2,30.15,WNW,292,2.5,4.5,60,0.00,,,0.00,WUHU21623XXSP,2013-04-17 12:00:00,
2013-04-17 08:01:00,54.9,41.2,30.16,North,0,7.8,7.8,60,0.00,,,0.00,WUHU21623XXSP,2013-04-17 12:01:00,
2013-04-17 08:02:00,54.9,41.2,30.16,North,0,7.8,7.8,60,0.00,,,0.00,WUHU21623XXSP,2013-04-17 12:02:00,
2013-04-17 08:04:00,55.0,40.9,30.16,SW,225,2.5,7.8,59,0.00,,,0.00,WUHU21623XXSP,2013-04-17 12:04:00,
2013-04-17 08:05:00,55.0,40.9,30.16,NNW,337,0.0,7.8,59,0.00,,,0.00,WUHU21623XXSP,2013-04-17 12:05:00,
2013-04-17 08:06:00,55.0,40.9,30.16,NNW,337,0.0,7.8,59,0.00,,,0.00,WUHU21623XXSP,2013-04-17 12:06:00,
2013-04-17 08:07:00,55.0,40.9,30.16,NNW,337,0.0,7.8,59,0.00,,,0.00,WUHU21623XXSP,2013-04-17 12:07:00,
2013-04-17 08:09:00,55.2,41.1,30.16,WSW,247,0.0,7.8,59,0.00,,,0.00,WUHU21623XXSP,2013-04-17 12:09:00,
2013-04-17 08:11:00,55.2,41.1,30.16,WSW,247,0.0,7.8,59,0.00,,,0.00,WUHU21623XXSP,2013-04-17 12:11:00,
2013-04-17 08:12:00,55.2,41.1,30.16,West,270,2.5,3.1,59,0.00,,,0.00,WUHU21623XXSP,2013-04-17 12:12:00,
2013-04-17 08:14:00,55.2,41.1,30.15,West,270,3.4,3.4,59,0.00,,,0.00,WUHU21623XXSP,2013-04-17 12:14:00,
2013-04-17 08:17:00,55.2,41.1,30.16,West,270,1.6,3.4,59,0.00,,,0.00,WUHU21623XXSP,2013-04-17 12:17:00,
2013-04-17 08:20:00,55.2,41.1,30.16,NNW,337,1.1,3.4,59,0.00,,,0.00,WUHU21623XXSP,2013-04-17 12:20:00,
2013-04-17 08:22:00,55.6,41.4,30.16,WNW,292,1.8,3.4,59,0.00,,,0.00,WUHU21623XXSP,2013-04-17 12:22:00,
2013-04-17 08:25:00,55.6,41.4,30.16,WNW,292,4.7,4.7,59,0.00,,,0.00,WUHU21623XXSP,2013-04-17 12:25:00,
2013-04-17 08:27:00,55.6,41.0,30.16,NW,315,2.5,4.7,58,0.00,,,0.00,WUHU21623XXSP,2013-04-17 12:27:00,
2013-04-17 08:28:00,55.6,41.0,30.16,NW,315,2.5,4.7,58,0.00,,,0.00,WUHU21623XXSP,2013-04-17 12:28:00,
2013-04-17 08:30:00,55.6,41.0,30.16,NW,315,2.5,4.7,58,0.00,,,0.00,WUHU21623XXSP,2013-04-17 12:30:00,
2013-04-17 08:32:00,55.6,41.0,30.16,NW,315,2.5,4.7,58,0.00,,,0.00,WUHU21623XXSP,2013-04-17 12:32:00,
2013-04-17 08:33:00,55.6,41.0,30.16,NW,315,2.5,4.7,58,0.00,,,0.00,WUHU21623XXSP,2013-04-17 12:33:00,
2013-04-17 08:35:00,55.8,41.1,30.16,NW,315,0.9,2.5,58,0.00,,,0.00,WUHU21623XXSP,2013-04-17 12:35:00,
2013-04-17 08:38:00,55.8,41.1,30.17,NW,315,2.5,2.5,58,0.00,,,0.00,WUHU21623XXSP,2013-04-17 12:38:00,
2013-04-17 08:41:00,55.8,41.1,30.17,NW,315,2.5,2.5,58,0.00,,,0.00,WUHU21623XXSP,2013-04-17 12:41:00,
2013-04-17 08:43:00,55.9,41.3,30.17,NNW,337,0.0,2.5,58,0.00,,,0.00,WUHU21623XXSP,2013-04-17 12:43:00,
2013-04-17 08:47:00,55.9,40.9,30.17,West,270,0.7,4.0,57,0.00,,,0.00,WUHU21623XXSP,2013-04-17 12:47:00,
2013-04-17 08:48:00,56.1,41.0,30.17,SE,135,1.8,4.0,57,0.00,,,0.00,WUHU21623XXSP,2013-04-17 12:48:00,
2013-04-17 08:49:00,56.1,41.0,30.17,SE,135,1.8,4.0,57,0.00,,,0.00,WUHU21623XXSP,2013-04-17 12:49:00,
2013-04-17 08:52:00,56.1,41.0,30.17,ENE,67,0.0,4.0,57,0.00,,,0.00,WUHU21623XXSP,2013-04-17 12:52:00,
2013-04-17 08:53:00,56.1,41.0,30.17,ENE,67,0.0,4.0,57,0.00,,,0.00,WUHU21623XXSP,2013-04-17 12:53:00,
2013-04-17 08:54:00,56.1,41.0,30.17,ENE,67,0.0,1.8,57,0.00,,,0.00,WUHU21623XXSP,2013-04-17 12:54:00,
2013-04-17 08:58:00,56.1,41.0,30.17,WSW,247,10.3,10.3,56,0.00,,,0.00,WUHU21623XXSP,2013-04-17 12:58:00,
2013-04-17 08:59:00,56.1,40.6,30.17,NW,315,2.9,10.3,57,0.00,,,0.00,WUHU21623XXSP,2013-04-17 12:59:00,
2013-04-17 09:03:00,56.5,40.7,30.17,NNW,337,1.3,10.3,56,0.00,,,0.00,WUHU21623XXSP,2013-04-17 13:03:00,
2013-04-17 09:04:00,56.5,40.7,30.17,NNW,337,1.3,10.3,56,0.00,,,0.00,WUHU21623XXSP,2013-04-17 13:04:00,
2013-04-17 09:08:00,56.5,40.9,30.17,SSW,202,0.9,2.9,56,0.00,,,0.00,WUHU21623XXSP,2013-04-17 13:08:00,
2013-04-17 09:09:00,56.5,40.9,30.17,SSW,202,0.9,1.3,56,0.00,,,0.00,WUHU21623XXSP,2013-04-17 13:09:00,
2013-04-17 09:10:00,56.7,40.9,30.17,SSW,202,0.9,1.3,56,0.00,,,0.00,WUHU21623XXSP,2013-04-17 13:10:00,
2013-04-17 09:13:00,56.8,41.1,30.17,SSW,202,0.9,1.3,56,0.00,,,0.00,WUHU21623XXSP,2013-04-17 13:13:00,
2013-04-17 09:14:00,56.8,41.3,30.17,WNW,292,4.7,4.7,56,0.00,,,0.00,WUHU21623XXSP,2013-04-17 13:14:00,
2013-04-17 09:15:00,56.8,41.3,30.17,WNW,292,4.7,4.7,56,0.00,,,0.00,WUHU21623XXSP,2013-04-17 13:15:00,
2013-04-17 09:18:00,57.0,41.0,30.17,West,270,2.5,4.7,55,0.00,,,0.00,WUHU21623XXSP,2013-04-17 13:18:00,
2013-04-17 09:19:00,57.0,41.0,30.17,West,270,2.5,4.7,55,0.00,,,0.00,WUHU21623XXSP,2013-04-17 13:19:00,
2013-04-17 09:20:00,57.0,41.0,30.17,West,270,2.5,4.7,55,0.00,,,0.00,WUHU21623XXSP,2013-04-17 13:20:00,
2013-04-17 09:23:00,57.0,41.0,30.18,West,270,2.5,4.7,55,0.00,,,0.00,WUHU21623XXSP,2013-04-17 13:23:00,
2013-04-17 09:24:00,57.0,41.0,30.18,West,270,2.5,2.5,55,0.00,,,0.00,WUHU21623XXSP,2013-04-17 13:24:00,
2013-04-17 09:25:00,57.0,41.0,30.17,WSW,247,3.6,3.6,55,0.00,,,0.00,WUHU21623XXSP,2013-04-17 13:25:00,
2013-04-17 09:26:00,57.0,41.0,30.17,WSW,247,3.6,3.6,55,0.00,,,0.00,WUHU21623XXSP,2013-04-17 13:26:00,
2013-04-17 09:29:00,57.0,41.0,30.18,NW,315,1.1,3.6,55,0.00,,,0.00,WUHU21623XXSP,2013-04-17 13:29:00,
2013-04-17 09:30:00,57.0,41.0,30.18,NW,315,1.1,3.6,55,0.00,,,0.00,WUHU21623XXSP,2013-04-17 13:30:00,
2013-04-17 09:31:00,57.4,41.3,30.18,ESE,112,0.0,3.6,55,0.00,,,0.00,WUHU21623XXSP,2013-04-17 13:31:00,
2013-04-17 09:34:00,57.6,41.0,30.18,NE,45,2.9,3.6,54,0.00,,,0.00,WUHU21623XXSP,2013-04-17 13:34:00,
2013-04-17 09:35:00,57.6,41.0,30.18,NE,45,2.9,3.6,54,0.00,,,0.00,WUHU21623XXSP,2013-04-17 13:35:00,
2013-04-17 09:37:00,57.6,40.6,30.18,West,270,0.0,2.9,53,0.00,,,0.00,WUHU21623XXSP,2013-04-17 13:37:00,
2013-04-17 09:39:00,57.7,40.6,30.18,West,270,0.0,2.9,53,0.00,,,0.00,WUHU21623XXSP,2013-04-17 13:39:00,
2013-04-17 09:40:00,57.7,40.3,30.18,ENE,67,2.5,2.9,52,0.00,,,0.00,WUHU21623XXSP,2013-04-17 13:40:00,
2013-04-17 09:41:00,57.7,40.3,30.18,ENE,67,2.5,2.9,52,0.00,,,0.00,WUHU21623XXSP,2013-04-17 13:41:00,
2013-04-17 09:42:00,57.7,40.3,30.18,WSW,247,9.4,9.4,52,0.00,,,0.00,WUHU21623XXSP,2013-04-17 13:42:00,
2013-04-17 09:45:00,57.7,40.3,30.18,WSW,247,9.4,9.4,52,0.00,,,0.00,WUHU21623XXSP,2013-04-17 13:45:00,
2013-04-17 09:46:00,57.9,40.4,30.18,NNW,337,1.3,9.4,52,0.00,,,0.00,WUHU21623XXSP,2013-04-17 13:46:00,
2013-04-17 09:47:00,57.9,40.4,30.18,NNW,337,1.3,9.4,52,0.00,,,0.00,WUHU21623XXSP,2013-04-17 13:47:00,
2013-04-17 09:50:00,57.9,40.4,30.17,NNW,337,1.3,9.4,51,0.00,,,0.00,WUHU21623XXSP,2013-04-17 13:50:00,
2013-04-17 09:51:00,57.9,40.0,30.18,West,270,3.1,9.4,51,0.00,,,0.00,WUHU21623XXSP,2013-04-17 13:51:00,
2013-04-17 09:52:00,58.1,40.1,30.18,West,270,3.6,9.4,51,0.00,,,0.00,WUHU21623XXSP,2013-04-17 13:52:00,
2013-04-17 09:55:00,58.1,40.1,30.18,WSW,247,3.4,3.6,51,0.00,,,0.00,WUHU21623XXSP,2013-04-17 13:55:00,
2013-04-17 09:56:00,58.1,40.1,30.18,WSW,247,3.4,3.6,51,0.00,,,0.00,WUHU21623XXSP,2013-04-17 13:56:00,
2013-04-17 09:57:00,58.1,40.1,30.18,WSW,247,3.4,3.6,50,0.00,,,0.00,WUHU21623XXSP,2013-04-17 13:57:00,
2013-04-17 10:00:00,58.1,39.6,30.18,West,270,2.5,3.6,50,0.00,,,0.00,WUHU21623XXSP,2013-04-17 14:00:00,
2013-04-17 10:01:00,58.3,39.6,30.18,West,270,0.9,3.6,50,0.00,,,0.00,WUHU21623XXSP,2013-04-17 14:01:00,
2013-04-17 10:02:00,58.3,39.6,30.18,West,270,0.9,3.6,50,0.00,,,0.00,WUHU21623XXSP,2013-04-17 14:02:00,
2013-04-17 10:03:00,58.3,39.8,30.18,West,270,5.6,5.6,50,0.00,,,0.00,WUHU21623XXSP,2013-04-17 14:03:00,
2013-04-17 10:05:00,58.3,39.8,30.18,West,270,5.6,5.6,50,0.00,,,0.00,WUHU21623XXSP,2013-04-17 14:05:00,
2013-04-17 10:06:00,58.3,39.8,30.18,West,270,5.6,5.6,50,0.00,,,0.00,WUHU21623XXSP,2013-04-17 14:06:00,
2013-04-17 10:07:00,58.3,39.8,30.18,West,270,5.6,5.6,50,0.00,,,0.00,WUHU21623XXSP,2013-04-17 14:07:00,
2013-04-17 10:08:00,58.3,39.8,30.18,WSW,247,6.0,6.0,50,0.00,,,0.00,WUHU21623XXSP,2013-04-17 14:08:00,
2013-04-17 10:10:00,58.6,39.8,30.18,WSW,247,6.0,6.0,50,0.00,,,0.00,WUHU21623XXSP,2013-04-17 14:10:00,
2013-04-17 10:12:00,58.8,40.3,30.18,West,270,3.1,6.0,50,0.00,,,0.00,WUHU21623XXSP,2013-04-17 14:12:00,
2013-04-17 10:13:00,58.8,40.3,30.18,West,270,3.1,6.0,50,0.00,,,0.00,WUHU21623XXSP,2013-04-17 14:13:00,
2013-04-17 10:16:00,58.8,40.3,30.18,West,270,3.1,6.0,50,0.00,,,0.00,WUHU21623XXSP,2013-04-17 14:16:00,
2013-04-17 10:17:00,58.8,40.3,30.18,West,270,3.1,6.0,50,0.00,,,0.00,WUHU21623XXSP,2013-04-17 14:17:00,
2013-04-17 10:18:00,58.8,39.7,30.18,WNW,292,4.0,6.0,49,0.00,,,0.00,WUHU21623XXSP,2013-04-17 14:18:00,
2013-04-17 10:21:00,58.8,39.7,30.18,West,270,9.4,9.4,49,0.00,,,0.00,WUHU21623XXSP,2013-04-17 14:21:00,
2013-04-17 10:22:00,58.8,39.7,30.19,West,270,9.4,9.4,49,0.00,,,0.00,WUHU21623XXSP,2013-04-17 14:22:00,
2013-04-17 10:23:00,58.8,39.7,30.19,West,270,9.4,9.4,49,0.00,,,0.00,WUHU21623XXSP,2013-04-17 14:23:00,
2013-04-17 10:26:00,59.4,40.2,30.19,NNW,337,2.7,9.4,49,0.00,,,0.00,WUHU21623XXSP,2013-04-17 14:26:00,
2013-04-17 10:27:00,59.4,40.2,30.19,NNW,337,2.7,9.4,49,0.00,,,0.00,WUHU21623XXSP,2013-04-17 14:27:00,
2013-04-17 10:28:00,59.4,40.2,30.19,NNW,337,2.7,9.4,49,0.00,,,0.00,WUHU21623XXSP,2013-04-17 14:28:00,
2013-04-17 10:32:00,59.7,40.4,30.19,SW,225,2.5,9.4,48,0.00,,,0.00,WUHU21623XXSP,2013-04-17 14:32:00,
2013-04-17 10:33:00,59.9,40.0,30.18,SW,225,2.5,9.4,48,0.00,,,0.00,WUHU21623XXSP,2013-04-17 14:33:00,
2013-04-17 10:37:00,60.1,39.7,30.19,West,270,3.8,3.8,47,0.00,,,0.00,WUHU21623XXSP,2013-04-17 14:37:00,
2013-04-17 10:38:00,60.3,39.7,30.18,West,270,3.8,3.8,47,0.00,,,0.00,WUHU21623XXSP,2013-04-17 14:38:00,
2013-04-17 10:39:00,60.3,39.7,30.18,West,270,3.8,3.8,47,0.00,,,0.00,WUHU21623XXSP,2013-04-17 14:39:00,
2013-04-17 10:42:00,60.4,38.9,30.19,WSW,247,7.2,7.2,45,0.00,,,0.00,WUHU21623XXSP,2013-04-17 14:42:00,
2013-04-17 10:43:00,60.4,38.9,30.19,WSW,247,7.2,7.2,45,0.00,,,0.00,WUHU21623XXSP,2013-04-17 14:43:00,
2013-04-17 10:44:00,60.4,38.9,30.19,WNW,292,3.8,7.2,45,0.00,,,0.00,WUHU21623XXSP,2013-04-17 14:44:00,
2013-04-17 10:47:00,60.6,39.0,30.19,WNW,292,2.9,7.2,45,0.00,,,0.00,WUHU21623XXSP,2013-04-17 14:47:00,
2013-04-17 10:48:00,60.6,39.0,30.19,West,270,2.9,7.2,45,0.00,,,0.00,WUHU21623XXSP,2013-04-17 14:48:00,
2013-04-17 10:49:00,60.6,39.0,30.19,West,270,2.9,7.2,45,0.00,,,0.00,WUHU21623XXSP,2013-04-17 14:49:00,
2013-04-17 10:52:00,61.0,38.8,30.19,West,270,4.3,4.9,44,0.00,,,0.00,WUHU21623XXSP,2013-04-17 14:52:00,
2013-04-17 10:53:00,61.0,38.8,30.19,West,270,4.3,4.9,44,0.00,,,0.00,WUHU21623XXSP,2013-04-17 14:53:00,
2013-04-17 10:54:00,61.0,38.8,30.19,West,270,4.3,4.9,44,0.00,,,0.00,WUHU21623XXSP,2013-04-17 14:54:00,
2013-04-17 10:57:00,61.0,38.8,30.19,NNW,337,3.4,4.9,44,0.00,,,0.00,WUHU21623XXSP,2013-04-17 14:57:00,
2013-04-17 10:58:00,61.0,38.8,30.19,NNW,337,3.4,4.9,44,0.00,,,0.00,WUHU21623XXSP,2013-04-17 14:58:00,
2013-04-17 10:59:00,61.0,38.8,30.19,WSW,247,3.1,4.9,44,0.00,,,0.00,WUHU21623XXSP,2013-04-17 14:59:00,
2013-04-17 11:00:00,61.0,38.8,30.19,WSW,247,3.1,4.9,44,0.00,,,0.00,WUHU21623XXSP,2013-04-17 15:00:00,
2013-04-17 11:03:00,61.3,38.5,30.19,NW,315,1.1,3.4,43,0.00,,,0.00,WUHU21623XXSP,2013-04-17 15:03:00,
2013-04-17 11:04:00,61.3,38.5,30.19,WSW,247,2.2,3.4,43,0.00,,,0.00,WUHU21623XXSP,2013-04-17 15:04:00,
2013-04-17 11:05:00,61.3,38.5,30.18,WSW,247,2.2,3.4,43,0.00,,,0.00,WUHU21623XXSP,2013-04-17 15:05:00,
2013-04-17 11:08:00,61.5,38.7,30.19,NW,315,4.9,4.9,43,0.00,,,0.00,WUHU21623XXSP,2013-04-17 15:08:00,
2013-04-17 11:09:00,61.5,38.7,30.19,NW,315,4.9,4.9,43,0.00,,,0.00,WUHU21623XXSP,2013-04-17 15:09:00,
2013-04-17 11:11:00,61.5,38.7,30.19,West,270,2.2,4.9,43,0.00,,,0.00,WUHU21623XXSP,2013-04-17 15:11:00,
2013-04-17 11:13:00,61.5,38.1,30.18,NW,315,0.0,4.9,42,0.00,,,0.00,WUHU21623XXSP,2013-04-17 15:13:00,
2013-04-17 11:14:00,61.5,38.7,30.18,West,270,5.8,5.8,43,0.00,,,0.00,WUHU21623XXSP,2013-04-17 15:14:00,
2013-04-17 11:17:00,61.5,38.7,30.18,West,270,5.8,5.8,43,0.00,,,0.00,WUHU21623XXSP,2013-04-17 15:17:00,
2013-04-17 11:18:00,61.7,38.9,30.19,NW,315,2.0,5.8,43,0.00,,,0.00,WUHU21623XXSP,2013-04-17 15:18:00,
2013-04-17 11:19:00,61.7,38.9,30.19,NW,315,2.0,5.8,43,0.00,,,0.00,WUHU21623XXSP,2013-04-17 15:19:00,
2013-04-17 11:22:00,61.9,38.4,30.19,West,270,1.8,5.8,42,0.00,,,0.00,WUHU21623XXSP,2013-04-17 15:22:00,
2013-04-17 11:23:00,61.9,38.4,30.19,West,270,1.8,5.8,42,0.00,,,0.00,WUHU21623XXSP,2013-04-17 15:23:00,
2013-04-17 11:24:00,62.1,38.6,30.19,WSW,247,0.9,5.8,42,0.00,,,0.00,WUHU21623XXSP,2013-04-17 15:24:00,
2013-04-17 11:27:00,62.1,38.6,30.19,WSW,247,0.9,2.2,41,0.00,,,0.00,WUHU21623XXSP,2013-04-17 15:27:00,
2013-04-17 11:28:00,62.1,38.6,30.19,WSW,247,0.9,2.2,41,0.00,,,0.00,WUHU21623XXSP,2013-04-17 15:28:00,
2013-04-17 11:29:00,62.1,38.0,30.18,WNW,292,0.9,2.2,41,0.00,,,0.00,WUHU21623XXSP,2013-04-17 15:29:00,
2013-04-17 11:30:00,62.1,38.0,30.18,WNW,292,0.9,1.8,41,0.00,,,0.00,WUHU21623XXSP,2013-04-17 15:30:00,
2013-04-17 11:32:00,62.2,38.2,30.18,WSW,247,5.4,5.4,41,0.00,,,0.00,WUHU21623XXSP,2013-04-17 15:32:00,
2013-04-17 11:33:00,62.2,37.6,30.18,WNW,292,3.6,5.4,40,0.00,,,0.00,WUHU21623XXSP,2013-04-17 15:33:00,
2013-04-17 11:35:00,62.2,37.6,30.18,WNW,292,3.6,5.4,40,0.00,,,0.00,WUHU21623XXSP,2013-04-17 15:35:00,
2013-04-17 11:36:00,62.2,38.2,30.19,West,270,2.5,5.4,41,0.00,,,0.00,WUHU21623XXSP,2013-04-17 15:36:00,
2013-04-17 11:37:00,62.4,38.4,30.19,West,270,4.0,5.4,41,0.00,,,0.00,WUHU21623XXSP,2013-04-17 15:37:00,
2013-04-17 11:38:00,62.4,38.4,30.19,West,270,4.0,5.4,41,0.00,,,0.00,WUHU21623XXSP,2013-04-17 15:38:00,
2013-04-17 11:40:00,62.4,38.4,30.18,West,270,4.0,5.4,41,0.00,,,0.00,WUHU21623XXSP,2013-04-17 15:40:00,
2013-04-17 11:41:00,62.4,38.4,30.18,West,270,4.0,4.0,41,0.00,,,0.00,WUHU21623XXSP,2013-04-17 15:41:00,
2013-04-17 11:43:00,62.8,38.7,30.19,SE,135,0.9,4.0,41,0.00,,,0.00,WUHU21623XXSP,2013-04-17 15:43:00,
2013-04-17 11:44:00,62.8,38.1,30.19,West,270,2.5,4.0,40,0.00,,,0.00,WUHU21623XXSP,2013-04-17 15:44:00,
2013-04-17 11:46:00,63.0,38.3,30.18,West,270,3.8,4.0,40,0.00,,,0.00,WUHU21623XXSP,2013-04-17 15:46:00,
2013-04-17 11:48:00,63.1,38.3,30.18,West,270,3.1,4.0,40,0.00,,,0.00,WUHU21623XXSP,2013-04-17 15:48:00,
2013-04-17 11:49:00,63.1,38.3,30.18,West,270,3.1,3.8,40,0.00,,,0.00,WUHU21623XXSP,2013-04-17 15:49:00,
2013-04-17 11:52:00,63.1,38.4,30.19,WSW,247,6.7,6.7,40,0.00,,,0.00,WUHU21623XXSP,2013-04-17 15:52:00,
2013-04-17 11:53:00,63.1,38.4,30.19,WSW,247,6.7,6.7,40,0.00,,,0.00,WUHU21623XXSP,2013-04-17 15:53:00,
2013-04-17 11:54:00,63.1,38.4,30.19,WSW,247,6.7,6.7,40,0.00,,,0.00,WUHU21623XXSP,2013-04-17 15:54:00,
2013-04-17 11:57:00,63.7,38.6,30.18,WSW,247,6.7,6.7,39,0.00,,,0.00,WUHU21623XXSP,2013-04-17 15:57:00,
2013-04-17 11:58:00,63.9,38.4,30.19,NNW,337,2.9,6.7,39,0.00,,,0.00,WUHU21623XXSP,2013-04-17 15:58:00,
2013-04-17 11:59:00,63.9,38.4,30.19,NNW,337,2.9,6.7,39,0.00,,,0.00,WUHU21623XXSP,2013-04-17 15:59:00,
2013-04-17 12:02:00,63.9,38.4,30.18,NNW,337,2.9,6.7,38,0.00,,,0.00,WUHU21623XXSP,2013-04-17 16:02:00,
2013-04-17 12:04:00,64.0,38.5,30.18,SE,135,2.0,6.7,39,0.00,,,0.00,WUHU21623XXSP,2013-04-17 16:04:00,
2013-04-17 12:07:00,64.0,37.8,30.18,NW,315,6.5,6.5,38,0.00,,,0.00,WUHU21623XXSP,2013-04-17 16:07:00,
2013-04-17 12:09:00,64.2,38.0,30.18,SW,225,4.0,6.5,38,0.00,,,0.00,WUHU21623XXSP,2013-04-17 16:09:00,
2013-04-17 12:10:00,64.2,37.2,30.18,East,90,0.0,6.5,37,0.00,,,0.00,WUHU21623XXSP,2013-04-17 16:10:00,
2013-04-17 12:12:00,64.2,37.2,30.18,WSW,247,0.9,6.5,37,0.00,,,0.00,WUHU21623XXSP,2013-04-17 16:12:00,
2013-04-17 12:15:00,64.6,37.2,30.18,WSW,247,0.9,6.5,38,0.00,,,0.00,WUHU21623XXSP,2013-04-17 16:15:00,
2013-04-17 12:17:00,64.6,37.6,30.18,NW,315,4.0,4.0,37,0.00,,,0.00,WUHU21623XXSP,2013-04-17 16:17:00,
2013-04-17 12:20:00,64.8,37.7,30.17,WNW,292,11.2,11.2,37,0.00,,,0.00,WUHU21623XXSP,2013-04-17 16:20:00,
2013-04-17 12:22:00,64.8,37.7,30.18,West,270,3.4,11.2,37,0.00,,,0.00,WUHU21623XXSP,2013-04-17 16:22:00,
2013-04-17 12:23:00,64.8,37.7,30.18,West,270,3.4,11.2,37,0.00,,,0.00,WUHU21623XXSP,2013-04-17 16:23:00,
2013-04-17 12:25:00,64.8,37.7,30.18,West,270,3.4,11.2,37,0.00,,,0.00,WUHU21623XXSP,2013-04-17 16:25:00,
2013-04-17 12:27:00,64.9,37.9,30.18,NW,315,3.1,11.2,37,0.00,,,0.00,WUHU21623XXSP,2013-04-17 16:27:00,
2013-04-17 12:28:00,64.9,37.9,30.18,NW,315,3.1,11.2,37,0.00,,,0.00,WUHU21623XXSP,2013-04-17 16:28:00,
2013-04-17 12:30:00,64.9,37.9,30.18,North,0,0.0,3.4,37,0.00,,,0.00,WUHU21623XXSP,2013-04-17 16:30:00,
2013-04-17 12:32:00,64.9,37.9,30.17,North,0,0.0,3.4,37,0.00,,,0.00,WUHU21623XXSP,2013-04-17 16:32:00,
2013-04-17 12:33:00,65.1,38.0,30.17,West,270,3.8,3.8,37,0.00,,,0.00,WUHU21623XXSP,2013-04-17 16:33:00,
2013-04-17 12:35:00,65.1,37.3,30.17,NNW,337,6.3,6.3,36,0.00,,,0.00,WUHU21623XXSP,2013-04-17 16:35:00,
2013-04-17 12:36:00,65.1,37.3,30.17,NNW,337,6.3,6.3,36,0.00,,,0.00,WUHU21623XXSP,2013-04-17 16:36:00,
2013-04-17 12:37:00,65.3,37.5,30.17,NNW,337,2.2,6.3,36,0.00,,,0.00,WUHU21623XXSP,2013-04-17 16:37:00,
2013-04-17 12:39:00,65.3,37.5,30.17,NNW,337,2.2,6.3,36,0.00,,,0.00,WUHU21623XXSP,2013-04-17 16:39:00,
2013-04-17 12:40:00,65.3,37.5,30.17,NNW,337,2.2,6.3,36,0.00,,,0.00,WUHU21623XXSP,2013-04-17 16:40:00,
2013-04-17 12:41:00,65.3,37.5,30.17,NNW,337,2.2,6.3,36,0.00,,,0.00,WUHU21623XXSP,2013-04-17 16:41:00,
2013-04-17 12:43:00,65.5,37.7,30.17,WSW,247,5.8,6.3,36,0.00,,,0.00,WUHU21623XXSP,2013-04-17 16:43:00,
2013-04-17 12:44:00,65.5,37.7,30.17,SSW,202,0.7,6.3,36,0.00,,,0.00,WUHU21623XXSP,2013-04-17 16:44:00,
2013-04-17 12:45:00,65.5,37.7,30.17,SSW,202,0.7,5.8,36,0.00,,,0.00,WUHU21623XXSP,2013-04-17 16:45:00,
2013-04-17 12:46:00,65.5,37.7,30.17,SSW,202,0.7,5.8,36,0.00,,,0.00,WUHU21623XXSP,2013-04-17 16:46:00,
2013-04-17 12:48:00,65.5,37.7,30.17,SSW,202,0.7,5.8,36,0.00,,,0.00,WUHU21623XXSP,2013-04-17 16:48:00,
2013-04-17 12:49:00,65.5,37.7,30.17,SSW,202,0.7,5.8,36,0.00,,,0.00,WUHU21623XXSP,2013-04-17 16:49:00,
2013-04-17 12:50:00,65.5,37.7,30.17,NNW,337,0.9,5.8,36,0.00,,,0.00,WUHU21623XXSP,2013-04-17 16:50:00,
2013-04-17 12:51:00,65.5,37.7,30.17,NNW,337,0.9,0.9,36,0.00,,,0.00,WUHU21623XXSP,2013-04-17 16:51:00,
2013-04-17 12:52:00,65.5,37.7,30.17,NNW,337,0.9,0.9,36,0.00,,,0.00,WUHU21623XXSP,2013-04-17 16:52:00,
2013-04-17 12:53:00,65.5,37.7,30.17,NE,45,0.0,0.9,36,0.00,,,0.00,WUHU21623XXSP,2013-04-17 16:53:00,
2013-04-17 12:55:00,65.7,37.7,30.17,NE,45,0.0,0.9,36,0.00,,,0.00,WUHU21623XXSP,2013-04-17 16:55:00,
2013-04-17 12:56:00,65.7,37.7,30.17,NE,45,0.0,0.9,36,0.00,,,0.00,WUHU21623XXSP,2013-04-17 16:56:00,
2013-04-17 12:58:00,65.8,38.0,30.17,NW,315,2.5,2.5,36,0.00,,,0.00,WUHU21623XXSP,2013-04-17 16:58:00,
2013-04-17 13:00:00,66.0,38.1,30.17,WSW,247,3.6,3.6,36,0.00,,,0.00,WUHU21623XXSP,2013-04-17 17:00:00,
2013-04-17 13:01:00,66.0,38.1,30.17,West,270,2.9,3.6,36,0.00,,,0.00,WUHU21623XXSP,2013-04-17 17:01:00,
2013-04-17 13:03:00,66.2,38.3,30.17,South,180,0.0,3.6,36,0.00,,,0.00,WUHU21623XXSP,2013-04-17 17:03:00,
2013-04-17 13:05:00,66.4,38.4,30.17,WSW,247,4.7,4.7,36,0.00,,,0.00,WUHU21623XXSP,2013-04-17 17:05:00,
2013-04-17 13:06:00,66.4,38.4,30.17,WSW,247,4.7,4.7,36,0.00,,,0.00,WUHU21623XXSP,2013-04-17 17:06:00,
2013-04-17 13:07:00,66.4,38.4,30.17,WSW,247,4.7,4.7,36,0.00,,,0.00,WUHU21623XXSP,2013-04-17 17:07:00,
2013-04-17 13:08:00,66.7,38.0,30.17,NW,315,3.4,4.7,35,0.00,,,0.00,WUHU21623XXSP,2013-04-17 17:08:00,
2013-04-17 13:09:00,66.7,38.0,30.17,West,270,2.0,4.7,35,0.00,,,0.00,WUHU21623XXSP,2013-04-17 17:09:00,
2013-04-17 13:10:00,66.7,38.0,30.17,West,270,2.0,4.7,35,0.00,,,0.00,WUHU21623XXSP,2013-04-17 17:10:00,
2013-04-17 13:11:00,66.7,38.0,30.17,West,270,2.0,4.7,35,0.00,,,0.00,WUHU21623XXSP,2013-04-17 17:11:00,
2013-04-17 13:12:00,66.7,38.0,30.17,NNE,22,0.0,4.7,35,0.00,,,0.00,WUHU21623XXSP,2013-04-17 17:12:00,
2013-04-17 13:13:00,66.7,38.0,30.17,NNE,22,0.0,4.7,35,0.00,,,0.00,WUHU21623XXSP,2013-04-17 17:13:00,
2013-04-17 13:15:00,66.7,38.0,30.17,NNE,22,0.0,3.4,35,0.00,,,0.00,WUHU21623XXSP,2013-04-17 17:15:00,
2013-04-17 13:16:00,66.7,38.0,30.17,North,0,2.7,3.4,35,0.00,,,0.00,WUHU21623XXSP,2013-04-17 17:16:00,
2013-04-17 13:17:00,66.7,38.0,30.17,North,0,2.7,2.7,35,0.00,,,0.00,WUHU21623XXSP,2013-04-17 17:17:00,
2013-04-17 13:18:00,66.9,38.2,30.17,East,90,1.1,2.7,35,0.00,,,0.00,WUHU21623XXSP,2013-04-17 17:18:00,
2013-04-17 13:20:00,67.1,38.3,30.17,West,270,6.5,6.5,35,0.00,,,0.00,WUHU21623XXSP,2013-04-17 17:20:00,
2013-04-17 13:22:00,67.1,38.3,30.17,West,270,6.5,6.5,35,0.00,,,0.00,WUHU21623XXSP,2013-04-17 17:22:00,
2013-04-17 13:23:00,67.1,38.3,30.17,West,270,2.0,6.5,35,0.00,,,0.00,WUHU21623XXSP,2013-04-17 17:23:00,
2013-04-17 13:26:00,67.3,38.3,30.17,NNW,337,4.0,6.5,35,0.00,,,0.00,WUHU21623XXSP,2013-04-17 17:26:00,
2013-04-17 13:27:00,67.3,37.8,30.17,West,270,0.7,6.5,34,0.00,,,0.00,WUHU21623XXSP,2013-04-17 17:27:00,
2013-04-17 13:28:00,67.3,37.8,30.17,West,270,0.7,6.5,34,0.00,,,0.00,WUHU21623XXSP,2013-04-17 17:28:00,
2013-04-17 13:31:00,67.6,38.8,30.17,West,270,4.7,4.7,35,0.00,,,0.00,WUHU21623XXSP,2013-04-17 17:31:00,
2013-04-17 13:32:00,67.6,38.8,30.17,West,270,4.7,4.7,35,0.00,,,0.00,WUHU21623XXSP,2013-04-17 17:32:00,
2013-04-17 13:33:00,67.6,38.8,30.17,NNW,337,0.9,4.7,35,0.00,,,0.00,WUHU21623XXSP,2013-04-17 17:33:00,
2013-04-17 13:34:00,67.6,38.8,30.17,NNW,337,0.9,4.7,35,0.00,,,0.00,WUHU21623XXSP,2013-04-17 17:34:00,
2013-04-17 13:37:00,67.8,38.2,30.17,North,0,0.0,4.7,34,0.00,,,0.00,WUHU21623XXSP,2013-04-17 17:37:00,
2013-04-17 13:38:00,67.8,38.2,30.17,NE,45,6.3,6.3,34,0.00,,,0.00,WUHU21623XXSP,2013-04-17 17:38:00,
2013-04-17 13:39:00,67.8,38.2,30.17,NE,45,6.3,6.3,34,0.00,,,0.00,WUHU21623XXSP,2013-04-17 17:39:00,
2013-04-17 13:42:00,67.8,37.5,30.16,SE,135,1.6,6.3,33,0.00,,,0.00,WUHU21623XXSP,2013-04-17 17:42:00,
2013-04-17 13:43:00,67.8,38.2,30.17,ENE,67,2.7,6.3,34,0.00,,,0.00,WUHU21623XXSP,2013-04-17 17:43:00,
2013-04-17 13:44:00,67.8,38.2,30.17,ENE,67,2.7,6.3,34,0.00,,,0.00,WUHU21623XXSP,2013-04-17 17:44:00,
2013-04-17 13:47:00,67.8,37.5,30.17,North,0,3.8,6.3,33,0.00,,,0.00,WUHU21623XXSP,2013-04-17 17:47:00,
2013-04-17 13:48:00,68.2,37.5,30.17,North,0,3.8,3.8,33,0.00,,,0.00,WUHU21623XXSP,2013-04-17 17:48:00,
2013-04-17 13:49:00,68.2,37.5,30.17,North,0,3.8,3.8,33,0.00,,,0.00,WUHU21623XXSP,2013-04-17 17:49:00,
2013-04-17 13:52:00,68.5,38.9,30.17,NW,315,2.9,3.8,34,0.00,,,0.00,WUHU21623XXSP,2013-04-17 17:52:00,
2013-04-17 13:53:00,68.5,38.9,30.17,NW,315,2.9,3.8,34,0.00,,,0.00,WUHU21623XXSP,2013-04-17 17:53:00,
2013-04-17 13:54:00,68.5,38.9,30.17,NW,315,2.9,3.8,34,0.00,,,0.00,WUHU21623XXSP,2013-04-17 17:54:00,
2013-04-17 13:57:00,68.7,39.0,30.17,WSW,247,9.4,9.4,34,0.00,,,0.00,WUHU21623XXSP,2013-04-17 17:57:00,
2013-04-17 13:58:00,68.7,39.0,30.17,WSW,247,9.4,9.4,34,0.00,,,0.00,WUHU21623XXSP,2013-04-17 17:58:00,
2013-04-17 13:59:00,68.7,38.3,30.17,West,270,7.2,9.4,33,0.00,,,0.00,WUHU21623XXSP,2013-04-17 17:59:00,
2013-04-17 14:00:00,68.7,38.3,30.17,West,270,7.2,9.4,33,0.00,,,0.00,WUHU21623XXSP,2013-04-17 18:00:00,
2013-04-17 14:02:00,68.7,38.3,30.17,WNW,292,3.8,9.4,33,0.00,,,0.00,WUHU21623XXSP,2013-04-17 18:02:00,
2013-04-17 14:03:00,68.7,38.3,30.17,WNW,292,3.1,9.4,33,0.00,,,0.00,WUHU21623XXSP,2013-04-17 18:03:00,
2013-04-17 14:04:00,68.7,38.3,30.17,WNW,292,3.1,9.4,33,0.00,,,0.00,WUHU21623XXSP,2013-04-17 18:04:00,
2013-04-17 14:05:00,68.7,38.3,30.17,WNW,292,3.1,9.4,33,0.00,,,0.00,WUHU21623XXSP,2013-04-17 18:05:00,
2013-04-17 14:07:00,68.7,38.3,30.17,WSW,247,0.9,7.2,33,0.00,,,0.00,WUHU21623XXSP,2013-04-17 18:07:00,
2013-04-17 14:08:00,68.7,38.3,30.17,WSW,247,0.9,7.2,33,0.00,,,0.00,WUHU21623XXSP,2013-04-17 18:08:00,
2013-04-17 14:09:00,68.7,38.3,30.16,ENE,67,4.7,4.7,33,0.00,,,0.00,WUHU21623XXSP,2013-04-17 18:09:00,
2013-04-17 14:10:00,68.7,38.3,30.16,ENE,67,4.7,4.7,33,0.00,,,0.00,WUHU21623XXSP,2013-04-17 18:10:00,
2013-04-17 14:12:00,68.7,38.3,30.16,ENE,67,4.7,4.7,32,0.00,,,0.00,WUHU21623XXSP,2013-04-17 18:12:00,
2013-04-17 14:13:00,68.5,37.4,30.16,West,270,5.4,5.4,32,0.00,,,0.00,WUHU21623XXSP,2013-04-17 18:13:00,
2013-04-17 14:14:00,68.5,37.4,30.16,West,270,5.4,5.4,32,0.00,,,0.00,WUHU21623XXSP,2013-04-17 18:14:00,
2013-04-17 14:15:00,68.5,37.4,30.16,West,270,5.4,5.4,32,0.00,,,0.00,WUHU21623XXSP,2013-04-17 18:15:00,
2013-04-17 14:18:00,68.5,38.1,30.16,North,0,3.1,5.4,33,0.00,,,0.00,WUHU21623XXSP,2013-04-17 18:18:00,
2013-04-17 14:19:00,68.5,38.1,30.16,North,0,3.1,5.4,33,0.00,,,0.00,WUHU21623XXSP,2013-04-17 18:19:00,
2013-04-17 14:20:00,68.5,38.1,30.16,West,270,4.0,5.4,33,0.00,,,0.00,WUHU21623XXSP,2013-04-17 18:20:00,
2013-04-17 14:23:00,68.7,38.3,30.16,West,270,10.7,10.7,33,0.00,,,0.00,WUHU21623XXSP,2013-04-17 18:23:00,
2013-04-17 14:24:00,68.7,38.3,30.16,West,270,10.7,10.7,33,0.00,,,0.00,WUHU21623XXSP,2013-04-17 18:24:00,
2013-04-17 14:25:00,68.7,37.5,30.16,WSW,247,3.1,10.7,32,0.00,,,0.00,WUHU21623XXSP,2013-04-17 18:25:00,
2013-04-17 14:28:00,68.7,38.3,30.17,NE,45,1.8,10.7,33,0.00,,,0.00,WUHU21623XXSP,2013-04-17 18:28:00,
2013-04-17 14:29:00,68.7,38.3,30.16,NNW,337,0.0,10.7,33,0.00,,,0.00,WUHU21623XXSP,2013-04-17 18:29:00,
2013-04-17 14:30:00,68.7,38.3,30.16,NNW,337,0.0,10.7,33,0.00,,,0.00,WUHU21623XXSP,2013-04-17 18:30:00,
2013-04-17 14:33:00,68.9,38.4,30.17,West,270,1.6,3.1,33,0.00,,,0.00,WUHU21623XXSP,2013-04-17 18:33:00,
2013-04-17 14:34:00,68.9,38.4,30.17,West,270,1.6,3.1,33,0.00,,,0.00,WUHU21623XXSP,2013-04-17 18:34:00,
2013-04-17 14:35:00,69.1,38.6,30.16,West,270,3.8,3.8,33,0.00,,,0.00,WUHU21623XXSP,2013-04-17 18:35:00,
2013-04-17 14:39:00,69.4,38.9,30.16,West,270,4.0,4.0,33,0.00,,,0.00,WUHU21623XXSP,2013-04-17 18:39:00,
2013-04-17 14:40:00,69.4,38.2,30.17,West,270,2.9,4.0,32,0.00,,,0.00,WUHU21623XXSP,2013-04-17 18:40:00,
2013-04-17 14:44:00,69.4,38.2,30.17,NNW,337,1.6,6.9,32,0.00,,,0.00,WUHU21623XXSP,2013-04-17 18:44:00,
2013-04-17 14:45:00,69.4,38.2,30.17,NNW,337,1.6,6.9,32,0.00,,,0.00,WUHU21623XXSP,2013-04-17 18:45:00,
2013-04-17 14:49:00,69.4,38.2,30.17,ENE,67,1.8,6.9,32,0.00,,,0.00,WUHU21623XXSP,2013-04-17 18:49:00,
2013-04-17 14:50:00,69.4,37.5,30.16,NNE,22,2.9,6.9,31,0.00,,,0.00,WUHU21623XXSP,2013-04-17 18:50:00,
2013-04-17 14:51:00,69.4,37.5,30.16,NNE,22,2.9,6.9,31,0.00,,,0.00,WUHU21623XXSP,2013-04-17 18:51:00,
2013-04-17 14:54:00,69.4,37.5,30.16,NW,315,3.4,3.4,31,0.00,,,0.00,WUHU21623XXSP,2013-04-17 18:54:00,
2013-04-17 14:55:00,69.4,37.5,30.16,NW,315,3.4,3.4,31,0.00,,,0.00,WUHU21623XXSP,2013-04-17 18:55:00,
2013-04-17 14:56:00,69.3,37.5,30.17,NW,315,3.4,3.4,32,0.00,,,0.00,WUHU21623XXSP,2013-04-17 18:56:00,
2013-04-17 14:57:00,69.3,37.5,30.17,NW,315,3.4,3.4,32,0.00,,,0.00,WUHU21623XXSP,2013-04-17 18:57:00,
2013-04-17 14:59:00,69.4,37.5,30.17,NNW,337,1.1,3.4,31,0.00,,,0.00,WUHU21623XXSP,2013-04-17 18:59:00,
2013-04-17 15:00:00,69.4,37.5,30.17,NNW,337,1.1,3.4,31,0.00,,,0.00,WUHU21623XXSP,2013-04-17 19:00:00,
2013-04-17 15:01:00,69.4,38.2,30.17,North,0,0.0,3.4,32,0.00,,,0.00,WUHU21623XXSP,2013-04-17 19:01:00,
2013-04-17 15:02:00,69.4,38.2,30.17,North,0,0.0,3.4,32,0.00,,,0.00,WUHU21623XXSP,2013-04-17 19:02:00,
2013-04-17 15:04:00,69.6,37.6,30.16,NNW,337,0.9,3.4,31,0.00,,,0.00,WUHU21623XXSP,2013-04-17 19:04:00,
2013-04-17 15:05:00,69.6,38.4,30.17,West,270,0.0,3.4,32,0.00,,,0.00,WUHU21623XXSP,2013-04-17 19:05:00,
2013-04-17 15:06:00,69.6,38.4,30.17,West,270,0.0,3.4,32,0.00,,,0.00,WUHU21623XXSP,2013-04-17 19:06:00,
2013-04-17 15:07:00,69.6,38.4,30.17,West,270,0.0,1.1,32,0.00,,,0.00,WUHU21623XXSP,2013-04-17 19:07:00,
2013-04-17 15:09:00,70.0,37.9,30.17,WSW,247,2.9,4.0,31,0.00,,,0.00,WUHU21623XXSP,2013-04-17 19:09:00,
2013-04-17 15:11:00,70.0,37.9,30.17,WSW,247,2.9,4.0,31,0.00,,,0.00,WUHU21623XXSP,2013-04-17 19:11:00,
2013-04-17 15:12:00,70.0,37.9,30.17,NW,315,2.7,4.0,31,0.00,,,0.00,WUHU21623XXSP,2013-04-17 19:12:00,
2013-04-17 15:15:00,70.0,37.9,30.17,NW,315,2.7,4.0,31,0.00,,,0.00,WUHU21623XXSP,2013-04-17 19:15:00,
2013-04-17 15:16:00,70.0,37.9,30.17,West,270,0.7,4.0,31,0.00,,,0.00,WUHU21623XXSP,2013-04-17 19:16:00,
2013-04-17 15:17:00,70.0,37.9,30.17,West,270,0.7,4.0,31,0.00,,,0.00,WUHU21623XXSP,2013-04-17 19:17:00,
2013-04-17 15:20:00,69.8,37.8,30.17,West,270,17.0,17.0,31,0.00,,,0.00,WUHU21623XXSP,2013-04-17 19:20:00,
2013-04-17 15:22:00,69.8,37.8,30.17,West,270,17.0,17.0,31,0.00,,,0.00,WUHU21623XXSP,2013-04-17 19:22:00,
2013-04-17 15:23:00,69.8,37.8,30.16,WSW,247,4.3,17.0,31,0.00,,,0.00,WUHU21623XXSP,2013-04-17 19:23:00,
2013-04-17 15:25:00,69.6,37.6,30.17,North,0,2.2,17.0,31,0.00,,,0.00,WUHU21623XXSP,2013-04-17 19:25:00,
2013-04-17 15:27:00,69.8,37.8,30.17,West,270,5.6,17.0,31,0.00,,,0.00,WUHU21623XXSP,2013-04-17 19:27:00,
2013-04-17 15:28:00,69.8,37.8,30.17,West,270,5.6,17.0,31,0.00,,,0.00,WUHU21623XXSP,2013-04-17 19:28:00,
2013-04-17 15:30:00,69.8,37.8,30.17,WSW,247,0.0,5.6,31,0.00,,,0.00,WUHU21623XXSP,2013-04-17 19:30:00,
2013-04-17 15:32:00,69.8,37.8,30.17,West,270,2.2,5.6,31,0.00,,,0.00,WUHU21623XXSP,2013-04-17 19:32:00,
2013-04-17 15:33:00,69.6,38.4,30.17,NNW,337,0.0,5.6,32,0.00,,,0.00,WUHU21623XXSP,2013-04-17 19:33:00,
2013-04-17 15:35:00,69.8,37.8,30.17,NNE,22,1.6,5.6,31,0.00,,,0.00,WUHU21623XXSP,2013-04-17 19:35:00,
2013-04-17 15:37:00,70.0,37.9,30.17,West,270,2.9,2.9,31,0.00,,,0.00,WUHU21623XXSP,2013-04-17 19:37:00,
2013-04-17 15:38:00,70.0,37.9,30.17,West,270,2.9,2.9,31,0.00,,,0.00,WUHU21623XXSP,2013-04-17 19:38:00,
2013-04-17 15:40:00,70.0,37.9,30.17,NE,45,0.0,2.9,31,0.00,,,0.00,WUHU21623XXSP,2013-04-17 19:40:00,
2013-04-17 15:42:00,70.0,37.9,30.17,West,270,3.6,3.6,31,0.00,,,0.00,WUHU21623XXSP,2013-04-17 19:42:00,
2013-04-17 15:43:00,70.0,37.9,30.17,West,270,3.6,3.6,31,0.00,,,0.00,WUHU21623XXSP,2013-04-17 19:43:00,
2013-04-17 15:45:00,70.0,37.9,30.18,WSW,247,2.5,3.6,31,0.00,,,0.00,WUHU21623XXSP,2013-04-17 19:45:00,
2013-04-17 15:47:00,70.0,37.9,30.17,WSW,247,6.0,6.0,31,0.00,,,0.00,WUHU21623XXSP,2013-04-17 19:47:00,
2013-04-17 15:48:00,70.2,38.1,30.17,North,0,3.8,6.0,31,0.00,,,0.00,WUHU21623XXSP,2013-04-17 19:48:00,
2013-04-17 15:50:00,70.0,37.9,30.17,West,270,4.7,6.0,31,0.00,,,0.00,WUHU21623XXSP,2013-04-17 19:50:00,
2013-04-17 15:52:00,70.0,37.9,30.17,West,270,3.4,6.0,31,0.00,,,0.00,WUHU21623XXSP,2013-04-17 19:52:00,
2013-04-17 15:53:00,70.0,37.9,30.17,West,270,3.4,6.0,31,0.00,,,0.00,WUHU21623XXSP,2013-04-17 19:53:00,
2013-04-17 15:55:00,70.2,38.1,30.17,WSW,247,3.8,4.7,31,0.00,,,0.00,WUHU21623XXSP,2013-04-17 19:55:00,
2013-04-17 15:57:00,70.2,38.1,30.17,West,270,0.0,4.7,31,0.00,,,0.00,WUHU21623XXSP,2013-04-17 19:57:00,
2013-04-17 15:58:00,70.2,38.1,30.17,West,270,0.0,4.7,31,0.00,,,0.00,WUHU21623XXSP,2013-04-17 19:58:00,
2013-04-17 16:00:00,70.2,38.1,30.17,NW,315,1.3,3.8,31,0.00,,,0.00,WUHU21623XXSP,2013-04-17 20:00:00,
2013-04-17 16:02:00,70.2,38.1,30.17,West,270,1.3,3.8,31,0.00,,,0.00,WUHU21623XXSP,2013-04-17 20:02:00,
2013-04-17 16:03:00,70.2,38.1,30.17,West,270,1.3,3.8,31,0.00,,,0.00,WUHU21623XXSP,2013-04-17 20:03:00,
2013-04-17 16:06:00,70.3,38.1,30.17,West,270,1.3,1.3,31,0.00,,,0.00,WUHU21623XXSP,2013-04-17 20:06:00,
2013-04-17 16:07:00,70.3,38.3,30.17,North,0,3.8,3.8,31,0.00,,,0.00,WUHU21623XXSP,2013-04-17 20:07:00,
2013-04-17 16:08:00,70.3,38.3,30.17,North,0,3.8,3.8,31,0.00,,,0.00,WUHU21623XXSP,2013-04-17 20:08:00,
2013-04-17 16:12:00,70.3,38.3,30.17,NW,315,5.1,5.1,31,0.00,,,0.00,WUHU21623XXSP,2013-04-17 20:12:00,
2013-04-17 16:13:00,70.3,38.3,30.17,NW,315,5.1,5.1,31,0.00,,,0.00,WUHU21623XXSP,2013-04-17 20:13:00,
2013-04-17 16:14:00,70.3,38.3,30.17,WNW,292,3.8,5.1,31,0.00,,,0.00,WUHU21623XXSP,2013-04-17 20:14:00,
2013-04-17 16:18:00,70.2,38.1,30.17,WNW,292,4.0,5.1,31,0.00,,,0.00,WUHU21623XXSP,2013-04-17 20:18:00,
2013-04-17 16:19:00,70.2,38.1,30.17,WNW,292,4.0,5.1,31,0.00,,,0.00,WUHU21623XXSP,2013-04-17 20:19:00,
2013-04-17 16:23:00,70.2,38.1,30.18,SW,225,2.0,4.0,31,0.00,,,0.00,WUHU21623XXSP,2013-04-17 20:23:00,
2013-04-17 16:24:00,70.2,38.1,30.18,SW,225,2.0,4.0,31,0.00,,,0.00,WUHU21623XXSP,2013-04-17 20:24:00,
2013-04-17 16:28:00,70.5,37.7,30.18,West,270,0.0,2.2,30,0.00,,,0.00,WUHU21623XXSP,2013-04-17 20:28:00,
2013-04-17 16:29:00,70.5,37.7,30.18,West,270,0.0,2.2,30,0.00,,,0.00,WUHU21623XXSP,2013-04-17 20:29:00,
2013-04-17 16:33:00,70.5,37.7,30.18,NW,315,3.1,4.3,30,0.00,,,0.00,WUHU21623XXSP,2013-04-17 20:33:00,
2013-04-17 16:34:00,70.5,37.7,30.18,NW,315,3.1,4.3,30,0.00,,,0.00,WUHU21623XXSP,2013-04-17 20:34:00,
2013-04-17 16:38:00,70.3,37.5,30.18,NW,315,3.4,7.4,30,0.00,,,0.00,WUHU21623XXSP,2013-04-17 20:38:00,
2013-04-17 16:39:00,70.3,37.5,30.18,NW,315,3.4,7.4,30,0.00,,,0.00,WUHU21623XXSP,2013-04-17 20:39:00,
2013-04-17 16:40:00,70.2,37.5,30.18,NW,315,3.4,7.4,30,0.00,,,0.00,WUHU21623XXSP,2013-04-17 20:40:00,
2013-04-17 16:44:00,69.8,37.0,30.18,ESE,112,2.5,7.4,30,0.00,,,0.00,WUHU21623XXSP,2013-04-17 20:44:00,
2013-04-17 16:46:00,69.8,37.0,30.18,North,0,2.0,4.5,30,0.00,,,0.00,WUHU21623XXSP,2013-04-17 20:46:00,
2013-04-17 16:49:00,69.8,37.8,30.18,WSW,247,0.0,4.5,31,0.00,,,0.00,WUHU21623XXSP,2013-04-17 20:49:00,
2013-04-17 16:51:00,70.0,37.9,30.18,NE,45,0.9,4.5,31,0.00,,,0.00,WUHU21623XXSP,2013-04-17 20:51:00,
2013-04-17 16:54:00,70.2,37.4,30.18,West,270,3.8,3.8,30,0.00,,,0.00,WUHU21623XXSP,2013-04-17 20:54:00,
2013-04-17 16:55:00,70.2,37.4,30.18,West,270,3.8,3.8,30,0.00,,,0.00,WUHU21623XXSP,2013-04-17 20:55:00,
2013-04-17 16:56:00,70.2,37.4,30.18,West,270,3.8,3.8,30,0.00,,,0.00,WUHU21623XXSP,2013-04-17 20:56:00,
2013-04-17 16:57:00,70.2,37.4,30.18,West,270,3.8,3.8,30,0.00,,,0.00,WUHU21623XXSP,2013-04-17 20:57:00,
2013-04-17 16:59:00,70.0,37.2,30.18,West,270,2.5,3.8,30,0.00,,,0.00,WUHU21623XXSP,2013-04-17 20:59:00,
2013-04-17 17:00:00,70.0,37.2,30.18,West,270,2.5,3.8,30,0.00,,,0.00,WUHU21623XXSP,2013-04-17 21:00:00,
2013-04-17 17:01:00,70.0,37.2,30.18,NNW,337,0.0,3.8,30,0.00,,,0.00,WUHU21623XXSP,2013-04-17 21:01:00,
2013-04-17 17:02:00,70.0,37.2,30.18,NNW,337,0.0,3.8,30,0.00,,,0.00,WUHU21623XXSP,2013-04-17 21:02:00,
2013-04-17 17:04:00,70.0,37.2,30.19,SW,225,1.6,3.8,30,0.00,,,0.00,WUHU21623XXSP,2013-04-17 21:04:00,
2013-04-17 17:05:00,70.0,37.2,30.19,SW,225,1.6,3.8,30,0.00,,,0.00,WUHU21623XXSP,2013-04-17 21:05:00,
2013-04-17 17:07:00,70.0,37.2,30.19,SW,225,1.6,2.5,30,0.00,,,0.00,WUHU21623XXSP,2013-04-17 21:07:00,
2013-04-17 17:09:00,70.0,37.2,30.19,West,270,1.1,1.6,30,0.00,,,0.00,WUHU21623XXSP,2013-04-17 21:09:00,
2013-04-17 17:10:00,70.0,37.2,30.19,West,270,1.1,1.6,30,0.00,,,0.00,WUHU21623XXSP,2013-04-17 21:10:00,
2013-04-17 17:12:00,70.0,37.2,30.19,WSW,247,5.6,5.6,30,0.00,,,0.00,WUHU21623XXSP,2013-04-17 21:12:00,
2013-04-17 17:15:00,69.8,37.0,30.19,ENE,67,1.3,5.6,30,0.00,,,0.00,WUHU21623XXSP,2013-04-17 21:15:00,
2013-04-17 17:17:00,70.0,37.0,30.19,ENE,67,1.3,5.6,30,0.00,,,0.00,WUHU21623XXSP,2013-04-17 21:17:00,
2013-04-17 17:20:00,69.8,37.0,30.19,WSW,247,0.0,5.6,30,0.00,,,0.00,WUHU21623XXSP,2013-04-17 21:20:00,
2013-04-17 17:21:00,69.8,37.0,30.19,WSW,247,0.0,5.6,30,0.00,,,0.00,WUHU21623XXSP,2013-04-17 21:21:00,
2013-04-17 17:23:00,69.6,36.9,30.19,North,0,2.0,2.0,30,0.00,,,0.00,WUHU21623XXSP,2013-04-17 21:23:00,
2013-04-17 17:25:00,69.6,36.9,30.19,West,270,1.6,2.0,30,0.00,,,0.00,WUHU21623XXSP,2013-04-17 21:25:00,
2013-04-17 17:26:00,69.6,36.9,30.20,West,270,1.3,2.0,30,0.00,,,0.00,WUHU21623XXSP,2013-04-17 21:26:00,
2013-04-17 17:28:00,69.6,37.6,30.20,NNW,337,0.9,2.0,31,0.00,,,0.00,WUHU21623XXSP,2013-04-17 21:28:00,
2013-04-17 17:29:00,69.6,37.6,30.20,NNW,337,0.9,2.0,31,0.00,,,0.00,WUHU21623XXSP,2013-04-17 21:29:00,
2013-04-17 17:30:00,69.6,37.6,30.20,NNW,337,0.9,2.0,30,0.00,,,0.00,WUHU21623XXSP,2013-04-17 21:30:00,
2013-04-17 17:32:00,69.6,37.6,30.20,NNW,337,0.9,1.6,30,0.00,,,0.00,WUHU21623XXSP,2013-04-17 21:32:00,
2013-04-17 17:34:00,69.6,36.9,30.20,West,270,2.5,2.5,30,0.00,,,0.00,WUHU21623XXSP,2013-04-17 21:34:00,
2013-04-17 17:35:00,69.6,36.9,30.20,WSW,247,2.9,2.9,30,0.00,,,0.00,WUHU21623XXSP,2013-04-17 21:35:00,
2013-04-17 17:37:00,69.6,36.9,30.20,ENE,67,1.8,2.9,30,0.00,,,0.00,WUHU21623XXSP,2013-04-17 21:37:00,
2013-04-17 17:39:00,69.6,36.9,30.20,ENE,67,1.8,2.9,30,0.00,,,0.00,WUHU21623XXSP,2013-04-17 21:39:00,
2013-04-17 17:40:00,69.4,36.7,30.20,West,270,5.1,5.1,30,0.00,,,0.00,WUHU21623XXSP,2013-04-17 21:40:00,
2013-04-17 17:41:00,69.4,36.7,30.20,NW,315,0.0,5.1,30,0.00,,,0.00,WUHU21623XXSP,2013-04-17 21:41:00,
2013-04-17 17:42:00,69.4,36.7,30.20,NW,315,0.0,5.1,30,0.00,,,0.00,WUHU21623XXSP,2013-04-17 21:42:00,
2013-04-17 17:44:00,69.4,36.7,30.20,WNW,292,2.5,5.1,30,0.00,,,0.00,WUHU21623XXSP,2013-04-17 21:44:00,
2013-04-17 17:45:00,69.4,36.7,30.20,WNW,292,2.5,5.1,30,0.00,,,0.00,WUHU21623XXSP,2013-04-17 21:45:00,
2013-04-17 17:47:00,69.4,36.7,30.21,NNW,337,0.0,5.1,30,0.00,,,0.00,WUHU21623XXSP,2013-04-17 21:47:00,
2013-04-17 17:49:00,69.3,36.6,30.21,NW,315,0.0,2.5,30,0.00,,,0.00,WUHU21623XXSP,2013-04-17 21:49:00,
2013-04-17 17:50:00,69.1,36.4,30.21,WNW,292,0.0,2.5,30,0.00,,,0.00,WUHU21623XXSP,2013-04-17 21:50:00,
2013-04-17 17:52:00,68.9,36.2,30.21,WNW,292,0.0,2.5,30,0.00,,,0.00,WUHU21623XXSP,2013-04-17 21:52:00,
2013-04-17 17:54:00,68.9,37.0,30.21,West,270,2.2,2.2,31,0.00,,,0.00,WUHU21623XXSP,2013-04-17 21:54:00,
2013-04-17 17:55:00,68.9,37.0,30.21,West,270,2.2,2.2,31,0.00,,,0.00,WUHU21623XXSP,2013-04-17 21:55:00,
2013-04-17 17:57:00,68.9,37.0,30.21,ESE,112,0.9,2.2,30,0.00,,,0.00,WUHU21623XXSP,2013-04-17 21:57:00,
2013-04-17 17:58:00,68.9,37.0,30.21,ESE,112,0.9,2.2,30,0.00,,,0.00,WUHU21623XXSP,2013-04-17 21:58:00,
2013-04-17 17:59:00,68.9,36.2,30.21,West,270,0.0,2.2,30,0.00,,,0.00,WUHU21623XXSP,2013-04-17 21:59:00,
2013-04-17 18:00:00,68.9,36.2,30.21,West,270,0.0,2.2,30,0.00,,,0.00,WUHU21623XXSP,2013-04-17 22:00:00,
2013-04-17 18:02:00,68.9,36.2,30.21,NE,45,0.0,2.2,30,0.00,,,0.00,WUHU21623XXSP,2013-04-17 22:02:00,
2013-04-17 18:03:00,68.9,36.2,30.21,NE,45,0.0,2.2,30,0.00,,,0.00,WUHU21623XXSP,2013-04-17 22:03:00,
2013-04-17 18:04:00,68.7,36.2,30.21,NE,45,0.0,0.9,30,0.00,,,0.00,WUHU21623XXSP,2013-04-17 22:04:00,
2013-04-17 18:05:00,68.7,36.2,30.21,NE,45,0.0,0.9,30,0.00,,,0.00,WUHU21623XXSP,2013-04-17 22:05:00,
2013-04-17 18:08:00,68.7,36.1,30.22,West,270,2.9,2.9,30,0.00,,,0.00,WUHU21623XXSP,2013-04-17 22:08:00,
2013-04-17 18:10:00,68.5,35.9,30.22,North,0,3.1,3.1,30,0.00,,,0.00,WUHU21623XXSP,2013-04-17 22:10:00,
2013-04-17 18:11:00,68.5,35.9,30.22,North,0,3.1,3.1,30,0.00,,,0.00,WUHU21623XXSP,2013-04-17 22:11:00,
2013-04-17 18:13:00,68.4,35.7,30.22,WSW,247,3.6,3.6,30,0.00,,,0.00,WUHU21623XXSP,2013-04-17 22:13:00,
2013-04-17 18:15:00,68.0,35.4,30.22,NE,45,1.3,3.6,30,0.00,,,0.00,WUHU21623XXSP,2013-04-17 22:15:00,
2013-04-17 18:16:00,68.0,35.4,30.22,NE,45,1.3,3.6,30,0.00,,,0.00,WUHU21623XXSP,2013-04-17 22:16:00,
2013-04-17 18:18:00,67.8,35.3,30.22,WNW,292,2.0,3.6,30,0.00,,,0.00,WUHU21623XXSP,2013-04-17 22:18:00,
2013-04-17 18:20:00,67.8,35.3,30.22,West,270,7.6,7.6,30,0.00,,,0.00,WUHU21623XXSP,2013-04-17 22:20:00,
2013-04-17 18:21:00,67.8,35.3,30.22,West,270,7.6,7.6,30,0.00,,,0.00,WUHU21623XXSP,2013-04-17 22:21:00,
2013-04-17 18:23:00,67.6,35.1,30.22,NW,315,3.8,7.6,30,0.00,,,0.00,WUHU21623XXSP,2013-04-17 22:23:00,
2013-04-17 18:26:00,67.3,34.8,30.22,West,270,4.3,7.6,30,0.00,,,0.00,WUHU21623XXSP,2013-04-17 22:26:00,
2013-04-17 18:27:00,67.3,34.8,30.22,West,270,4.3,7.6,30,0.00,,,0.00,WUHU21623XXSP,2013-04-17 22:27:00,
2013-04-17 18:28:00,67.3,34.8,30.22,West,270,4.3,7.6,30,0.00,,,0.00,WUHU21623XXSP,2013-04-17 22:28:00,
2013-04-17 18:32:00,67.1,34.7,30.22,ENE,67,0.0,5.1,30,0.00,,,0.00,WUHU21623XXSP,2013-04-17 22:32:00,
2013-04-17 18:33:00,66.9,35.3,30.22,West,270,1.8,5.1,31,0.00,,,0.00,WUHU21623XXSP,2013-04-17 22:33:00,
2013-04-17 18:37:00,66.9,35.3,30.22,WNW,292,1.8,1.8,30,0.00,,,0.00,WUHU21623XXSP,2013-04-17 22:37:00,
2013-04-17 18:38:00,66.9,35.3,30.22,WNW,292,1.8,1.8,30,0.00,,,0.00,WUHU21623XXSP,2013-04-17 22:38:00,
2013-04-17 18:39:00,66.9,35.3,30.22,WNW,292,1.8,1.8,30,0.00,,,0.00,WUHU21623XXSP,2013-04-17 22:39:00,
2013-04-17 18:42:00,66.4,34.8,30.23,WNW,292,1.1,1.8,31,0.00,,,0.00,WUHU21623XXSP,2013-04-17 22:42:00,
2013-04-17 18:43:00,66.4,34.8,30.23,SW,225,0.0,1.8,31,0.00,,,0.00,WUHU21623XXSP,2013-04-17 22:43:00,
2013-04-17 18:44:00,66.4,34.8,30.23,SW,225,0.0,1.8,31,0.00,,,0.00,WUHU21623XXSP,2013-04-17 22:44:00,
2013-04-17 18:47:00,66.0,34.5,30.23,West,270,0.0,1.1,31,0.00,,,0.00,WUHU21623XXSP,2013-04-17 22:47:00,
2013-04-17 18:48:00,66.0,34.5,30.23,NNW,337,1.1,1.1,31,0.00,,,0.00,WUHU21623XXSP,2013-04-17 22:48:00,
2013-04-17 18:49:00,66.0,34.5,30.23,NNW,337,1.1,1.1,31,0.00,,,0.00,WUHU21623XXSP,2013-04-17 22:49:00,
2013-04-17 18:52:00,65.8,34.4,30.23,NW,315,0.0,1.1,31,0.00,,,0.00,WUHU21623XXSP,2013-04-17 22:52:00,
2013-04-17 18:53:00,65.8,34.4,30.23,NW,315,0.0,1.1,31,0.00,,,0.00,WUHU21623XXSP,2013-04-17 22:53:00,
2013-04-17 18:54:00,65.8,34.4,30.23,NW,315,0.0,1.1,31,0.00,,,0.00,WUHU21623XXSP,2013-04-17 22:54:00,
2013-04-17 18:57:00,65.5,34.1,30.24,WNW,292,1.3,1.3,31,0.00,,,0.00,WUHU21623XXSP,2013-04-17 22:57:00,
2013-04-17 18:58:00,65.5,34.1,30.24,WNW,292,1.3,1.3,31,0.00,,,0.00,WUHU21623XXSP,2013-04-17 22:58:00,
2013-04-17 18:59:00,65.1,33.7,30.24,WNW,292,1.1,1.3,31,0.00,,,0.00,WUHU21623XXSP,2013-04-17 22:59:00,
2013-04-17 19:02:00,64.9,33.6,30.24,SE,135,0.0,1.3,31,0.00,,,0.00,WUHU21623XXSP,2013-04-17 23:02:00,
2013-04-17 19:03:00,64.9,33.6,30.24,SE,135,0.0,1.3,31,0.00,,,0.00,WUHU21623XXSP,2013-04-17 23:03:00,
2013-04-17 19:04:00,64.9,33.6,30.24,SE,135,0.0,1.3,31,0.00,,,0.00,WUHU21623XXSP,2013-04-17 23:04:00,
2013-04-17 19:07:00,64.6,33.2,30.24,NE,45,0.0,1.1,31,0.00,,,0.00,WUHU21623XXSP,2013-04-17 23:07:00,
2013-04-17 19:08:00,64.6,33.2,30.24,NE,45,0.0,0.9,31,0.00,,,0.00,WUHU21623XXSP,2013-04-17 23:08:00,
2013-04-17 19:09:00,64.2,33.6,30.24,NNE,22,0.0,0.9,32,0.00,,,0.00,WUHU21623XXSP,2013-04-17 23:09:00,
2013-04-17 19:13:00,64.2,33.6,30.24,North,0,0.0,0.9,32,0.00,,,0.00,WUHU21623XXSP,2013-04-17 23:13:00,
2013-04-17 19:14:00,64.2,33.6,30.25,SW,225,0.0,0.9,32,0.00,,,0.00,WUHU21623XXSP,2013-04-17 23:14:00,
2013-04-17 19:15:00,64.2,33.6,30.25,SW,225,0.0,0.0,32,0.00,,,0.00,WUHU21623XXSP,2013-04-17 23:15:00,
2013-04-17 19:18:00,64.0,33.5,30.25,NE,45,0.0,1.1,32,0.00,,,0.00,WUHU21623XXSP,2013-04-17 23:18:00,
2013-04-17 19:20:00,64.0,33.5,30.25,NE,45,0.0,1.1,32,0.00,,,0.00,WUHU21623XXSP,2013-04-17 23:20:00,
2013-04-17 19:23:00,63.7,33.2,30.25,NNW,337,0.0,1.1,32,0.00,,,0.00,WUHU21623XXSP,2013-04-17 23:23:00,
2013-04-17 19:24:00,63.7,33.2,30.25,NNW,337,0.0,1.1,32,0.00,,,0.00,WUHU21623XXSP,2013-04-17 23:24:00,
2013-04-17 19:25:00,63.7,33.2,30.25,NNW,337,0.0,1.1,32,0.00,,,0.00,WUHU21623XXSP,2013-04-17 23:25:00,
2013-04-17 19:28:00,63.5,33.0,30.25,North,0,1.8,1.8,32,0.00,,,0.00,WUHU21623XXSP,2013-04-17 23:28:00,
2013-04-17 19:29:00,63.5,33.0,30.25,West,270,2.2,2.2,32,0.00,,,0.00,WUHU21623XXSP,2013-04-17 23:29:00,
2013-04-17 19:30:00,63.5,33.0,30.25,West,270,2.2,2.2,32,0.00,,,0.00,WUHU21623XXSP,2013-04-17 23:30:00,
2013-04-17 19:33:00,63.3,33.5,30.25,West,270,0.0,2.2,33,0.00,,,0.00,WUHU21623XXSP,2013-04-17 23:33:00,
2013-04-17 19:36:00,63.1,33.4,30.25,ENE,67,1.1,2.2,33,0.00,,,0.00,WUHU21623XXSP,2013-04-17 23:36:00,
2013-04-17 19:38:00,63.1,33.4,30.25,ENE,67,1.1,1.1,33,0.00,,,0.00,WUHU21623XXSP,2013-04-17 23:38:00,
2013-04-17 19:41:00,63.0,33.2,30.25,NNE,22,0.0,1.1,33,0.00,,,0.00,WUHU21623XXSP,2013-04-17 23:41:00,
2013-04-17 19:42:00,63.0,33.2,30.25,NNE,22,0.0,1.1,33,0.00,,,0.00,WUHU21623XXSP,2013-04-17 23:42:00,
2013-04-17 19:43:00,62.8,33.1,30.25,West,270,0.0,1.1,33,0.00,,,0.00,WUHU21623XXSP,2013-04-17 23:43:00,
2013-04-17 19:47:00,62.8,33.1,30.25,WNW,292,0.0,1.1,33,0.00,,,0.00,WUHU21623XXSP,2013-04-17 23:47:00,
2013-04-17 19:48:00,62.6,32.9,30.26,North,0,2.2,2.2,33,0.00,,,0.00,WUHU21623XXSP,2013-04-17 23:48:00,
2013-04-17 19:52:00,62.4,32.7,30.26,WSW,247,1.8,2.2,33,0.00,,,0.00,WUHU21623XXSP,2013-04-17 23:52:00,
2013-04-17 19:53:00,62.4,32.7,30.26,West,270,0.0,2.2,33,0.00,,,0.00,WUHU21623XXSP,2013-04-17 23:53:00,
2013-04-17 19:57:00,62.4,32.7,30.26,NNW,337,0.0,2.2,33,0.00,,,0.00,WUHU21623XXSP,2013-04-17 23:57:00,
2013-04-17 19:58:00,62.2,32.6,30.26,NNE,22,2.5,2.5,33,0.00,,,0.00,WUHU21623XXSP,2013-04-17 23:58:00,
2013-04-17 20:02:00,62.2,32.6,30.26,North,0,0.0,2.5,33,0.00,,,0.00,WUHU21623XXSP,2013-04-18 00:02:00,
2013-04-17 20:03:00,62.2,33.3,30.26,WNW,292,0.0,2.5,34,0.00,,,0.00,WUHU21623XXSP,2013-04-18 00:03:00,
2013-04-17 20:04:00,62.2,33.3,30.26,WNW,292,0.0,2.5,34,0.00,,,0.00,WUHU21623XXSP,2013-04-18 00:04:00,
2013-04-17 20:07:00,61.9,33.0,30.27,West,270,0.0,2.5,34,0.00,,,0.00,WUHU21623XXSP,2013-04-18 00:07:00,
2013-04-17 20:08:00,61.9,33.0,30.27,West,270,0.0,2.5,34,0.00,,,0.00,WUHU21623XXSP,2013-04-18 00:08:00,
2013-04-17 20:09:00,61.9,33.0,30.27,West,270,0.0,0.0,34,0.00,,,0.00,WUHU21623XXSP,2013-04-18 00:09:00,
2013-04-17 20:12:00,61.9,33.0,30.27,SSE,157,0.0,0.0,34,0.00,,,0.00,WUHU21623XXSP,2013-04-18 00:12:00,
2013-04-17 20:13:00,61.9,33.0,30.27,SSE,157,0.0,0.0,34,0.00,,,0.00,WUHU21623XXSP,2013-04-18 00:13:00,
2013-04-17 20:14:00,61.7,32.8,30.27,West,270,0.0,0.0,34,0.00,,,0.00,WUHU21623XXSP,2013-04-18 00:14:00,
2013-04-17 20:17:00,61.5,32.6,30.28,NW,315,0.0,0.0,34,0.00,,,0.00,WUHU21623XXSP,2013-04-18 00:17:00,
2013-04-17 20:18:00,61.5,32.6,30.28,NW,315,0.0,0.0,34,0.00,,,0.00,WUHU21623XXSP,2013-04-18 00:18:00,
2013-04-17 20:19:00,61.5,32.6,30.28,NW,315,0.0,0.0,34,0.00,,,0.00,WUHU21623XXSP,2013-04-18 00:19:00,
2013-04-17 20:23:00,61.3,32.5,30.28,NNW,337,0.0,0.0,34,0.00,,,0.00,WUHU21623XXSP,2013-04-18 00:23:00,
2013-04-17 20:24:00,61.3,33.2,30.28,WNW,292,0.0,0.0,35,0.00,,,0.00,WUHU21623XXSP,2013-04-18 00:24:00,
2013-04-17 20:25:00,61.3,33.2,30.28,WNW,292,0.0,0.0,35,0.00,,,0.00,WUHU21623XXSP,2013-04-18 00:25:00,
2013-04-17 20:28:00,61.0,33.0,30.28,NNE,22,0.0,0.0,35,0.00,,,0.00,WUHU21623XXSP,2013-04-18 00:28:00,
2013-04-17 20:29:00,61.0,33.0,30.28,NNE,22,0.0,0.0,35,0.00,,,0.00,WUHU21623XXSP,2013-04-18 00:29:00,
2013-04-17 20:30:00,61.0,33.0,30.28,NNE,22,0.0,0.0,35,0.00,,,0.00,WUHU21623XXSP,2013-04-18 00:30:00,
2013-04-17 20:34:00,60.6,32.6,30.28,North,0,0.9,0.9,35,0.00,,,0.00,WUHU21623XXSP,2013-04-18 00:34:00,
2013-04-17 20:35:00,60.6,32.6,30.28,NNW,337,0.0,0.9,35,0.00,,,0.00,WUHU21623XXSP,2013-04-18 00:35:00,
2013-04-17 20:39:00,60.4,32.6,30.29,West,270,0.0,0.9,35,0.00,,,0.00,WUHU21623XXSP,2013-04-18 00:39:00,
2013-04-17 20:40:00,60.4,32.6,30.29,West,270,0.0,0.9,35,0.00,,,0.00,WUHU21623XXSP,2013-04-18 00:40:00,
2013-04-17 20:44:00,60.1,32.1,30.29,NE,45,0.0,0.0,35,0.00,,,0.00,WUHU21623XXSP,2013-04-18 00:44:00,
2013-04-17 20:45:00,60.1,32.1,30.29,NE,45,0.0,0.0,35,0.00,,,0.00,WUHU21623XXSP,2013-04-18 00:45:00,
2013-04-17 20:46:00,60.1,32.8,30.29,NNW,337,0.0,0.0,36,0.00,,,0.00,WUHU21623XXSP,2013-04-18 00:46:00,
2013-04-17 20:49:00,60.1,32.8,30.29,North,0,0.0,0.0,36,0.00,,,0.00,WUHU21623XXSP,2013-04-18 00:49:00,
2013-04-17 20:51:00,59.7,32.5,30.29,NW,315,0.0,0.0,36,0.00,,,0.00,WUHU21623XXSP,2013-04-18 00:51:00,
2013-04-17 20:54:00,59.7,32.5,30.29,NW,315,0.0,0.0,36,0.00,,,0.00,WUHU21623XXSP,2013-04-18 00:54:00,
2013-04-17 20:56:00,59.7,32.5,30.29,NW,315,0.0,0.0,36,0.00,,,0.00,WUHU21623XXSP,2013-04-18 00:56:00,
2013-04-17 20:57:00,59.5,32.5,30.29,NW,315,0.0,0.0,36,0.00,,,0.00,WUHU21623XXSP,2013-04-18 00:57:00,
2013-04-17 20:59:00,59.5,33.1,30.30,NNE,22,0.0,0.0,37,0.00,,,0.00,WUHU21623XXSP,2013-04-18 00:59:00,
2013-04-17 21:00:00,59.5,33.1,30.30,NNE,22,0.0,0.0,37,0.00,,,0.00,WUHU21623XXSP,2013-04-18 01:00:00,
2013-04-17 21:01:00,59.2,32.7,30.30,NNE,22,0.0,0.0,37,0.00,,,0.00,WUHU21623XXSP,2013-04-18 01:01:00,
2013-04-17 21:02:00,59.2,32.7,30.30,NNE,22,0.0,0.0,37,0.00,,,0.00,WUHU21623XXSP,2013-04-18 01:02:00,
2013-04-17 21:05:00,58.8,32.4,30.30,NE,45,0.0,0.0,37,0.00,,,0.00,WUHU21623XXSP,2013-04-18 01:05:00,
2013-04-17 21:06:00,58.8,32.4,30.30,NE,45,0.0,0.0,37,0.00,,,0.00,WUHU21623XXSP,2013-04-18 01:06:00,
2013-04-17 21:08:00,58.8,32.4,30.30,NE,45,0.0,0.0,37,0.00,,,0.00,WUHU21623XXSP,2013-04-18 01:08:00,
2013-04-17 21:10:00,58.8,33.1,30.30,South,180,0.0,0.0,38,0.00,,,0.00,WUHU21623XXSP,2013-04-18 01:10:00,
2013-04-17 21:11:00,58.8,33.1,30.30,South,180,0.0,0.0,38,0.00,,,0.00,WUHU21623XXSP,2013-04-18 01:11:00,
2013-04-17 21:13:00,58.8,33.1,30.30,South,180,0.0,0.0,38,0.00,,,0.00,WUHU21623XXSP,2013-04-18 01:13:00,
2013-04-17 21:15:00,58.6,33.0,30.30,NNW,337,0.0,0.0,38,0.00,,,0.00,WUHU21623XXSP,2013-04-18 01:15:00,
2013-04-17 21:17:00,58.5,32.8,30.30,NNE,22,0.0,0.0,38,0.00,,,0.00,WUHU21623XXSP,2013-04-18 01:17:00,
2013-04-17 21:18:00,58.3,32.6,30.30,North,0,0.0,0.0,38,0.00,,,0.00,WUHU21623XXSP,2013-04-18 01:18:00,
2013-04-17 21:21:00,58.3,32.6,30.30,NNE,22,0.0,0.0,38,0.00,,,0.00,WUHU21623XXSP,2013-04-18 01:21:00,
2013-04-17 21:22:00,58.1,32.5,30.30,NE,45,1.3,1.3,38,0.00,,,0.00,WUHU21623XXSP,2013-04-18 01:22:00,
2013-04-17 21:23:00,58.1,32.5,30.30,NE,45,1.3,1.3,38,0.00,,,0.00,WUHU21623XXSP,2013-04-18 01:23:00,
2013-04-17 21:26:00,57.9,32.3,30.30,East,90,0.0,1.3,38,0.00,,,0.00,WUHU21623XXSP,2013-04-18 01:26:00,
2013-04-17 21:27:00,57.9,32.3,30.30,East,90,0.0,1.3,38,0.00,,,0.00,WUHU21623XXSP,2013-04-18 01:27:00,
2013-04-17 21:28:00,57.9,32.3,30.30,East,90,0.0,1.3,38,0.00,,,0.00,WUHU21623XXSP,2013-04-18 01:28:00,
2013-04-17 21:29:00,57.7,32.2,30.30,SW,225,0.0,1.3,38,0.00,,,0.00,WUHU21623XXSP,2013-04-18 01:29:00,
2013-04-17 21:32:00,57.7,32.2,30.30,North,0,1.3,1.3,38,0.00,,,0.00,WUHU21623XXSP,2013-04-18 01:32:00,
2013-04-17 21:33:00,57.7,32.2,30.30,North,0,1.3,1.3,38,0.00,,,0.00,WUHU21623XXSP,2013-04-18 01:33:00,
2013-04-17 21:34:00,57.7,32.2,30.30,North,0,1.3,1.3,38,0.00,,,0.00,WUHU21623XXSP,2013-04-18 01:34:00,
2013-04-17 21:37:00,57.6,32.0,30.30,NE,45,0.0,1.3,38,0.00,,,0.00,WUHU21623XXSP,2013-04-18 01:37:00,
2013-04-17 21:38:00,57.6,32.0,30.30,NE,45,0.0,1.3,38,0.00,,,0.00,WUHU21623XXSP,2013-04-18 01:38:00,
2013-04-17 21:39:00,57.6,32.0,30.30,NNW,337,0.0,1.3,38,0.00,,,0.00,WUHU21623XXSP,2013-04-18 01:39:00,
2013-04-17 21:43:00,57.6,32.0,30.30,ENE,67,0.9,0.9,38,0.00,,,0.00,WUHU21623XXSP,2013-04-18 01:43:00,
2013-04-17 21:44:00,57.6,32.0,30.30,ENE,67,0.0,0.9,38,0.00,,,0.00,WUHU21623XXSP,2013-04-18 01:44:00,
2013-04-17 21:48:00,57.4,31.8,30.30,NNE,22,0.0,0.9,38,0.00,,,0.00,WUHU21623XXSP,2013-04-18 01:48:00,
2013-04-17 21:49:00,57.4,31.8,30.30,NNE,22,0.0,0.9,38,0.00,,,0.00,WUHU21623XXSP,2013-04-18 01:49:00,
2013-04-17 21:50:00,57.4,31.8,30.30,NNE,22,0.0,0.9,39,0.00,,,0.00,WUHU21623XXSP,2013-04-18 01:50:00,
2013-04-17 21:53:00,57.4,32.5,30.30,WNW,292,0.0,0.0,39,0.00,,,0.00,WUHU21623XXSP,2013-04-18 01:53:00,
2013-04-17 21:54:00,57.4,32.5,30.30,NW,315,0.0,0.0,39,0.00,,,0.00,WUHU21623XXSP,2013-04-18 01:54:00,
2013-04-17 21:57:00,57.0,32.2,30.31,NW,315,0.0,0.0,39,0.00,,,0.00,WUHU21623XXSP,2013-04-18 01:57:00,
2013-04-17 21:58:00,57.0,32.2,30.31,North,0,0.0,0.0,39,0.00,,,0.00,WUHU21623XXSP,2013-04-18 01:58:00,
2013-04-17 21:59:00,57.0,32.2,30.31,North,0,0.0,0.0,39,0.00,,,0.00,WUHU21623XXSP,2013-04-18 01:59:00,
2013-04-17 22:02:00,57.0,32.2,30.31,NNW,337,0.0,0.0,39,0.00,,,0.00,WUHU21623XXSP,2013-04-18 02:02:00,
2013-04-17 22:03:00,57.0,32.2,30.31,WNW,292,0.0,0.0,39,0.00,,,0.00,WUHU21623XXSP,2013-04-18 02:03:00,
2013-04-17 22:04:00,57.0,32.2,30.31,WNW,292,0.0,0.0,39,0.00,,,0.00,WUHU21623XXSP,2013-04-18 02:04:00,
2013-04-17 22:07:00,56.8,32.1,30.31,North,0,0.0,0.0,39,0.00,,,0.00,WUHU21623XXSP,2013-04-18 02:07:00,
2013-04-17 22:09:00,56.8,32.1,30.31,North,0,0.0,0.0,39,0.00,,,0.00,WUHU21623XXSP,2013-04-18 02:09:00,
2013-04-17 22:10:00,56.8,32.1,30.31,North,0,0.0,0.0,39,0.00,,,0.00,WUHU21623XXSP,2013-04-18 02:10:00,
2013-04-17 22:12:00,56.8,32.1,30.31,NE,45,0.0,0.0,39,0.00,,,0.00,WUHU21623XXSP,2013-04-18 02:12:00,
2013-04-17 22:14:00,56.5,32.1,30.31,NE,45,0.0,0.0,39,0.00,,,0.00,WUHU21623XXSP,2013-04-18 02:14:00,
2013-04-17 22:15:00,56.5,31.7,30.30,North,0,0.0,0.0,39,0.00,,,0.00,WUHU21623XXSP,2013-04-18 02:15:00,
2013-04-17 22:17:00,56.5,31.7,30.31,WNW,292,0.0,0.0,39,0.00,,,0.00,WUHU21623XXSP,2013-04-18 02:17:00,
2013-04-17 22:19:00,56.5,31.7,30.31,WNW,292,0.0,0.0,39,0.00,,,0.00,WUHU21623XXSP,2013-04-18 02:19:00,
2013-04-17 22:20:00,56.3,31.7,30.32,WNW,292,0.0,0.0,39,0.00,,,0.00,WUHU21623XXSP,2013-04-18 02:20:00,
2013-04-17 22:22:00,56.3,31.6,30.32,NNE,22,0.0,0.0,39,0.00,,,0.00,WUHU21623XXSP,2013-04-18 02:22:00,
2013-04-17 22:24:00,56.1,31.4,30.32,NE,45,0.0,0.0,39,0.00,,,0.00,WUHU21623XXSP,2013-04-18 02:24:00,
2013-04-17 22:25:00,56.1,31.4,30.32,NE,45,0.0,0.0,39,0.00,,,0.00,WUHU21623XXSP,2013-04-18 02:25:00,
2013-04-17 22:26:00,56.1,31.4,30.32,NE,45,0.0,0.0,39,0.00,,,0.00,WUHU21623XXSP,2013-04-18 02:26:00,
2013-04-17 22:28:00,56.1,31.4,30.32,NNW,337,0.0,0.0,39,0.00,,,0.00,WUHU21623XXSP,2013-04-18 02:28:00,
2013-04-17 22:29:00,56.1,31.4,30.32,WSW,247,0.0,0.0,39,0.00,,,0.00,WUHU21623XXSP,2013-04-18 02:29:00,
2013-04-17 22:30:00,56.1,31.4,30.32,WSW,247,0.0,0.0,39,0.00,,,0.00,WUHU21623XXSP,2013-04-18 02:30:00,
2013-04-17 22:31:00,56.1,31.4,30.32,NNE,22,0.0,0.0,39,0.00,,,0.00,WUHU21623XXSP,2013-04-18 02:31:00,
2013-04-17 22:33:00,55.9,31.2,30.32,ENE,67,2.0,2.0,39,0.00,,,0.00,WUHU21623XXSP,2013-04-18 02:33:00,
2013-04-17 22:34:00,55.9,31.2,30.32,ENE,67,2.0,2.0,39,0.00,,,0.00,WUHU21623XXSP,2013-04-18 02:34:00,
2013-04-17 22:35:00,55.9,31.2,30.32,ENE,67,0.0,2.0,39,0.00,,,0.00,WUHU21623XXSP,2013-04-18 02:35:00,
2013-04-17 22:36:00,55.9,31.2,30.32,ENE,67,0.0,2.0,39,0.00,,,0.00,WUHU21623XXSP,2013-04-18 02:36:00,
2013-04-17 22:38:00,55.9,31.9,30.32,NNW,337,0.0,2.0,40,0.00,,,0.00,WUHU21623XXSP,2013-04-18 02:38:00,
2013-04-17 22:39:00,55.9,31.9,30.31,NNW,337,0.0,2.0,40,0.00,,,0.00,WUHU21623XXSP,2013-04-18 02:39:00,
2013-04-17 22:40:00,55.9,31.9,30.31,NNW,337,0.0,2.0,40,0.00,,,0.00,WUHU21623XXSP,2013-04-18 02:40:00,
2013-04-17 22:41:00,55.9,31.9,30.31,NNW,337,0.0,2.0,40,0.00,,,0.00,WUHU21623XXSP,2013-04-18 02:41:00,
2013-04-17 22:43:00,55.8,31.8,30.31,North,0,0.0,0.0,40,0.00,,,0.00,WUHU21623XXSP,2013-04-18 02:43:00,
2013-04-17 22:45:00,55.8,31.8,30.31,North,0,0.0,0.0,40,0.00,,,0.00,WUHU21623XXSP,2013-04-18 02:45:00,
2013-04-17 22:46:00,55.6,31.8,30.32,North,0,0.0,0.0,40,0.00,,,0.00,WUHU21623XXSP,2013-04-18 02:46:00,
2013-04-17 22:47:00,55.6,31.8,30.32,North,0,0.0,0.0,40,0.00,,,0.00,WUHU21623XXSP,2013-04-18 02:47:00,
2013-04-17 22:48:00,55.6,31.6,30.31,North,0,0.0,0.0,40,0.00,,,0.00,WUHU21623XXSP,2013-04-18 02:48:00,
2013-04-17 22:50:00,55.4,31.5,30.32,ENE,67,0.0,0.0,40,0.00,,,0.00,WUHU21623XXSP,2013-04-18 02:50:00,
2013-04-17 22:51:00,55.4,31.5,30.32,ENE,67,0.0,0.0,40,0.00,,,0.00,WUHU21623XXSP,2013-04-18 02:51:00,
2013-04-17 22:52:00,55.4,31.5,30.32,ENE,67,0.0,0.0,40,0.00,,,0.00,WUHU21623XXSP,2013-04-18 02:52:00,
2013-04-17 22:53:00,55.4,31.5,30.32,ENE,67,0.0,0.0,40,0.00,,,0.00,WUHU21623XXSP,2013-04-18 02:53:00,
2013-04-17 22:55:00,55.2,31.9,30.32,ENE,67,0.0,0.0,41,0.00,,,0.00,WUHU21623XXSP,2013-04-18 02:55:00,
2013-04-17 22:57:00,55.2,31.9,30.32,ENE,67,0.0,0.0,41,0.00,,,0.00,WUHU21623XXSP,2013-04-18 02:57:00,
2013-04-17 22:59:00,55.0,31.7,30.32,ENE,67,0.0,0.0,41,0.00,,,0.00,WUHU21623XXSP,2013-04-18 02:59:00,
2013-04-17 23:00:00,55.0,31.7,30.32,ENE,67,0.0,0.0,41,0.00,,,0.00,WUHU21623XXSP,2013-04-18 03:00:00,
2013-04-17 23:02:00,54.7,31.9,30.32,ENE,67,0.0,0.0,42,0.00,,,0.00,WUHU21623XXSP,2013-04-18 03:02:00,
2013-04-17 23:03:00,54.5,31.8,30.32,ENE,67,0.0,0.0,42,0.00,,,0.00,WUHU21623XXSP,2013-04-18 03:03:00,
2013-04-17 23:04:00,54.3,31.6,30.32,ENE,67,0.0,0.0,42,0.00,,,0.00,WUHU21623XXSP,2013-04-18 03:04:00,
2013-04-17 23:05:00,54.3,31.6,30.32,ENE,67,0.0,0.0,42,0.00,,,0.00,WUHU21623XXSP,2013-04-18 03:05:00,
2013-04-17 23:07:00,54.1,31.6,30.32,ENE,67,0.0,0.0,42,0.00,,,0.00,WUHU21623XXSP,2013-04-18 03:07:00,
2013-04-17 23:08:00,54.1,31.6,30.32,ENE,67,0.0,0.0,42,0.00,,,0.00,WUHU21623XXSP,2013-04-18 03:08:00,
2013-04-17 23:10:00,54.0,31.8,30.33,ENE,67,0.0,0.0,43,0.00,,,0.00,WUHU21623XXSP,2013-04-18 03:10:00,
2013-04-17 23:11:00,53.8,31.7,30.32,ENE,67,0.0,0.0,43,0.00,,,0.00,WUHU21623XXSP,2013-04-18 03:11:00,
2013-04-17 23:12:00,53.8,31.7,30.32,ENE,67,0.0,0.0,43,0.00,,,0.00,WUHU21623XXSP,2013-04-18 03:12:00,
2013-04-17 23:13:00,53.4,31.9,30.32,ENE,67,0.0,0.0,44,0.00,,,0.00,WUHU21623XXSP,2013-04-18 03:13:00,
2013-04-17 23:15:00,53.4,31.9,30.32,ENE,67,0.0,0.0,44,0.00,,,0.00,WUHU21623XXSP,2013-04-18 03:15:00,
2013-04-17 23:16:00,53.4,31.9,30.32,ENE,67,0.0,0.0,44,0.00,,,0.00,WUHU21623XXSP,2013-04-18 03:16:00,
2013-04-17 23:17:00,53.2,31.7,30.32,ESE,112,0.0,0.0,44,0.00,,,0.00,WUHU21623XXSP,2013-04-18 03:17:00,
2013-04-17 23:18:00,53.2,31.7,30.32,ESE,112,0.0,0.0,44,0.00,,,0.00,WUHU21623XXSP,2013-04-18 03:18:00,
2013-04-17 23:21:00,52.9,32.0,30.32,ESE,112,0.0,0.0,45,0.00,,,0.00,WUHU21623XXSP,2013-04-18 03:21:00,
2013-04-17 23:23:00,52.7,31.8,30.32,ESE,112,0.0,0.0,45,0.00,,,0.00,WUHU21623XXSP,2013-04-18 03:23:00,
2013-04-17 23:26:00,52.3,32.1,30.32,ESE,112,0.0,0.0,46,0.00,,,0.00,WUHU21623XXSP,2013-04-18 03:26:00,
2013-04-17 23:27:00,52.3,32.1,30.32,ESE,112,0.0,0.0,46,0.00,,,0.00,WUHU21623XXSP,2013-04-18 03:27:00,
2013-04-17 23:28:00,52.2,31.9,30.32,ESE,112,0.0,0.0,46,0.00,,,0.00,WUHU21623XXSP,2013-04-18 03:28:00,
2013-04-17 23:29:00,52.2,31.9,30.32,ESE,112,0.0,0.0,46,0.00,,,0.00,WUHU21623XXSP,2013-04-18 03:29:00,
2013-04-17 23:31:00,52.0,31.7,30.31,ESE,112,0.0,0.0,46,0.00,,,0.00,WUHU21623XXSP,2013-04-18 03:31:00,
2013-04-17 23:33:00,51.8,32.1,30.31,ESE,112,0.0,0.0,47,0.00,,,0.00,WUHU21623XXSP,2013-04-18 03:33:00,
2013-04-17 23:34:00,51.8,32.1,30.31,ESE,112,0.0,0.0,47,0.00,,,0.00,WUHU21623XXSP,2013-04-18 03:34:00,
2013-04-17 23:37:00,51.6,32.5,30.31,ESE,112,0.0,0.0,48,0.00,,,0.00,WUHU21623XXSP,2013-04-18 03:37:00,
2013-04-17 23:38:00,51.6,32.5,30.31,ESE,112,0.0,0.0,48,0.00,,,0.00,WUHU21623XXSP,2013-04-18 03:38:00,
2013-04-17 23:39:00,51.6,32.5,30.31,ESE,112,0.0,0.0,48,0.00,,,0.00,WUHU21623XXSP,2013-04-18 03:39:00,
2013-04-17 23:42:00,51.4,32.4,30.32,ESE,112,0.0,0.0,48,0.00,,,0.00,WUHU21623XXSP,2013-04-18 03:42:00,
2013-04-17 23:43:00,51.4,32.9,30.32,ESE,112,0.0,0.0,49,0.00,,,0.00,WUHU21623XXSP,2013-04-18 03:43:00,
2013-04-17 23:44:00,51.4,32.9,30.32,ESE,112,0.0,0.0,49,0.00,,,0.00,WUHU21623XXSP,2013-04-18 03:44:00,
2013-04-17 23:47:00,51.1,32.8,30.32,ESE,112,0.0,0.0,49,0.00,,,0.00,WUHU21623XXSP,2013-04-18 03:47:00,
2013-04-17 23:48:00,51.1,32.8,30.32,ESE,112,0.0,0.0,49,0.00,,,0.00,WUHU21623XXSP,2013-04-18 03:48:00,
2013-04-17 23:49:00,50.9,32.4,30.32,ESE,112,0.0,0.0,49,0.00,,,0.00,WUHU21623XXSP,2013-04-18 03:49:00,
2013-04-17 23:50:00,50.9,32.4,30.32,ESE,112,0.0,0.0,49,0.00,,,0.00,WUHU21623XXSP,2013-04-18 03:50:00,
2013-04-17 23:52:00,50.7,32.3,30.33,ESE,112,0.0,0.0,49,0.00,,,0.00,WUHU21623XXSP,2013-04-18 03:52:00,
2013-04-17 23:53:00,50.7,32.3,30.33,ESE,112,0.0,0.0,49,0.00,,,0.00,WUHU21623XXSP,2013-04-18 03:53:00,
2013-04-17 23:54:00,50.7,32.3,30.33,ESE,112,0.0,0.0,49,0.00,,,0.00,WUHU21623XXSP,2013-04-18 03:54:00,
2013-04-17 23:55:00,50.7,32.3,30.33,ESE,112,0.0,0.0,49,0.00,,,0.00,WUHU21623XXSP,2013-04-18 03:55:00,
2013-04-17 23:57:00,50.5,32.3,30.33,ESE,112,0.0,0.0,50,0.00,,,0.00,WUHU21623XXSP,2013-04-18 03:57:00,
2013-04-17 23:58:00,50.4,32.5,30.33,ESE,112,0.0,0.0,50,0.00,,,0.00,WUHU21623XXSP,2013-04-18 03:58:00,
2013-04-17 23:59:00,50.4,32.5,30.33,ESE,112,0.0,0.0,50,0.00,,,0.00,WUHU21623XXSP,2013-04-18 03:59:00,